<?xml version="1.0" encoding="UTF-8" standalone="no" ?>
<gpx xmlns="http://www.topografix.com/GPX/1/1" xmlns:xsi="http://www.w3.org/2001/XMLSchema-instance" xsi:schemaLocation="http://www.topografix.com/GPX/1/1 http://www.topografix.com/GPX/1/1/gpx.xsd" version="1.1" creator="VisuGPX - https://www.visugpx.com">
  <metadata>
    <name>beauregard 2 12km+580</name>
    <desc><![CDATA[départ col de la croix Fry. Phil lacroix]]></desc>
  </metadata>
  <wpt lat="45.87738" lon="6.40348">
    <ele>1470.3</ele>
    <name><![CDATA[beauregard 2 12km+580]]></name>
    <type><![CDATA[Generic]]></type>
  </wpt>
  <trk>
    <name><![CDATA[beauregard 2 12km+580]]></name>
    <extensions>
      <line xmlns="http://www.topografix.com/GPX/gpx_style/0/2">
        <color>0000FF</color>
        <width>4</width>
      </line>
    </extensions>
    <trkseg>
      <trkpt lat="45.87738" lon="6.40348">
        <ele>1470.3</ele>
        <time>2021-08-25T14:38:29Z</time>
      </trkpt>
      <trkpt lat="45.87742" lon="6.40343">
        <ele>1471.2</ele>
        <time>2021-08-25T14:38:33Z</time>
      </trkpt>
      <trkpt lat="45.87742" lon="6.40339">
        <ele>1471.4</ele>
        <time>2021-08-25T14:38:37Z</time>
      </trkpt>
      <trkpt lat="45.87743" lon="6.40336">
        <ele>1471.9</ele>
        <time>2021-08-25T14:38:39Z</time>
      </trkpt>
      <trkpt lat="45.87753" lon="6.4033">
        <ele>1473.9</ele>
        <time>2021-08-25T14:38:54Z</time>
      </trkpt>
      <trkpt lat="45.87756" lon="6.40329">
        <ele>1474.6</ele>
        <time>2021-08-25T14:39:05Z</time>
      </trkpt>
      <trkpt lat="45.87763" lon="6.40321">
        <ele>1476.9</ele>
        <time>2021-08-25T14:39:18Z</time>
      </trkpt>
      <trkpt lat="45.8777" lon="6.4032">
        <ele>1478.4</ele>
        <time>2021-08-25T14:39:23Z</time>
      </trkpt>
      <trkpt lat="45.87777" lon="6.40317">
        <ele>1480.1</ele>
        <time>2021-08-25T14:39:33Z</time>
      </trkpt>
      <trkpt lat="45.87786" lon="6.40321">
        <ele>1481.4</ele>
        <time>2021-08-25T14:39:52Z</time>
      </trkpt>
      <trkpt lat="45.87795" lon="6.40321">
        <ele>1483</ele>
        <time>2021-08-25T14:40:10Z</time>
      </trkpt>
      <trkpt lat="45.87812" lon="6.4033">
        <ele>1485.3</ele>
        <time>2021-08-25T14:40:12Z</time>
      </trkpt>
      <trkpt lat="45.8782" lon="6.40332">
        <ele>1486.6</ele>
        <time>2021-08-25T14:40:17Z</time>
      </trkpt>
      <trkpt lat="45.87825" lon="6.40334">
        <ele>1487.2</ele>
        <time>2021-08-25T14:40:27Z</time>
      </trkpt>
      <trkpt lat="45.87839" lon="6.40331">
        <ele>1490.4</ele>
        <time>2021-08-25T14:40:40Z</time>
      </trkpt>
      <trkpt lat="45.87841" lon="6.40331">
        <ele>1490.7</ele>
        <time>2021-08-25T14:40:59Z</time>
      </trkpt>
      <trkpt lat="45.8785" lon="6.40335">
        <ele>1492</ele>
        <time>2021-08-25T14:41:17Z</time>
      </trkpt>
      <trkpt lat="45.8785" lon="6.40334">
        <ele>1492</ele>
        <time>2021-08-25T14:41:31Z</time>
      </trkpt>
      <trkpt lat="45.87858" lon="6.40331">
        <ele>1494.1</ele>
        <time>2021-08-25T14:41:35Z</time>
      </trkpt>
      <trkpt lat="45.8786" lon="6.40329">
        <ele>1494.6</ele>
        <time>2021-08-25T14:41:38Z</time>
      </trkpt>
      <trkpt lat="45.87867" lon="6.40316">
        <ele>1497.6</ele>
        <time>2021-08-25T14:41:54Z</time>
      </trkpt>
      <trkpt lat="45.87871" lon="6.40315">
        <ele>1498.4</ele>
        <time>2021-08-25T14:42:01Z</time>
      </trkpt>
      <trkpt lat="45.87883" lon="6.40324">
        <ele>1499.6</ele>
        <time>2021-08-25T14:42:04Z</time>
      </trkpt>
      <trkpt lat="45.87891" lon="6.40329">
        <ele>1500.5</ele>
        <time>2021-08-25T14:42:11Z</time>
      </trkpt>
      <trkpt lat="45.87898" lon="6.40335">
        <ele>1501.3</ele>
        <time>2021-08-25T14:42:18Z</time>
      </trkpt>
      <trkpt lat="45.87902" lon="6.40338">
        <ele>1501.5</ele>
        <time>2021-08-25T14:42:22Z</time>
      </trkpt>
      <trkpt lat="45.87908" lon="6.40338">
        <ele>1502.8</ele>
        <time>2021-08-25T14:42:37Z</time>
      </trkpt>
      <trkpt lat="45.87913" lon="6.40335">
        <ele>1504.1</ele>
        <time>2021-08-25T14:42:48Z</time>
      </trkpt>
      <trkpt lat="45.87915" lon="6.40331">
        <ele>1504.9</ele>
        <time>2021-08-25T14:43:02Z</time>
      </trkpt>
      <trkpt lat="45.87924" lon="6.40329">
        <ele>1507.7</ele>
        <time>2021-08-25T14:43:17Z</time>
      </trkpt>
      <trkpt lat="45.87926" lon="6.4033">
        <ele>1508.3</ele>
        <time>2021-08-25T14:43:22Z</time>
      </trkpt>
      <trkpt lat="45.87928" lon="6.4033">
        <ele>1509</ele>
        <time>2021-08-25T14:43:41Z</time>
      </trkpt>
      <trkpt lat="45.87936" lon="6.40335">
        <ele>1510.7</ele>
        <time>2021-08-25T14:43:57Z</time>
      </trkpt>
      <trkpt lat="45.87942" lon="6.40337">
        <ele>1512.4</ele>
        <time>2021-08-25T14:44:08Z</time>
      </trkpt>
      <trkpt lat="45.87951" lon="6.40339">
        <ele>1514.9</ele>
        <time>2021-08-25T14:44:10Z</time>
      </trkpt>
      <trkpt lat="45.87961" lon="6.40345">
        <ele>1517.2</ele>
        <time>2021-08-25T14:44:21Z</time>
      </trkpt>
      <trkpt lat="45.87964" lon="6.40349">
        <ele>1517.5</ele>
        <time>2021-08-25T14:44:35Z</time>
      </trkpt>
      <trkpt lat="45.87972" lon="6.40355">
        <ele>1519.5</ele>
        <time>2021-08-25T14:44:40Z</time>
      </trkpt>
      <trkpt lat="45.87975" lon="6.40358">
        <ele>1520</ele>
        <time>2021-08-25T14:44:56Z</time>
      </trkpt>
      <trkpt lat="45.87984" lon="6.40369">
        <ele>1521.3</ele>
        <time>2021-08-25T14:45:00Z</time>
      </trkpt>
      <trkpt lat="45.87989" lon="6.40381">
        <ele>1521.3</ele>
        <time>2021-08-25T14:45:11Z</time>
      </trkpt>
      <trkpt lat="45.87997" lon="6.4039">
        <ele>1522.7</ele>
        <time>2021-08-25T14:45:19Z</time>
      </trkpt>
      <trkpt lat="45.88" lon="6.40395">
        <ele>1522.9</ele>
        <time>2021-08-25T14:45:22Z</time>
      </trkpt>
      <trkpt lat="45.88005" lon="6.40411">
        <ele>1521.9</ele>
        <time>2021-08-25T14:45:28Z</time>
      </trkpt>
      <trkpt lat="45.88011" lon="6.40419">
        <ele>1522</ele>
        <time>2021-08-25T14:45:31Z</time>
      </trkpt>
      <trkpt lat="45.88022" lon="6.40434">
        <ele>1521.2</ele>
        <time>2021-08-25T14:45:35Z</time>
      </trkpt>
      <trkpt lat="45.88029" lon="6.40443">
        <ele>1521</ele>
        <time>2021-08-25T14:45:45Z</time>
      </trkpt>
      <trkpt lat="45.8803" lon="6.40445">
        <ele>1521</ele>
        <time>2021-08-25T14:45:57Z</time>
      </trkpt>
      <trkpt lat="45.88034" lon="6.40449">
        <ele>1521.2</ele>
        <time>2021-08-25T14:46:16Z</time>
      </trkpt>
      <trkpt lat="45.88037" lon="6.40452">
        <ele>1521.2</ele>
        <time>2021-08-25T14:46:32Z</time>
      </trkpt>
      <trkpt lat="45.88046" lon="6.40461">
        <ele>1521.6</ele>
        <time>2021-08-25T14:46:48Z</time>
      </trkpt>
      <trkpt lat="45.88057" lon="6.40467">
        <ele>1523.3</ele>
        <time>2021-08-25T14:47:01Z</time>
      </trkpt>
      <trkpt lat="45.88071" lon="6.40468">
        <ele>1527.1</ele>
        <time>2021-08-25T14:47:21Z</time>
      </trkpt>
      <trkpt lat="45.88074" lon="6.40467">
        <ele>1527.9</ele>
        <time>2021-08-25T14:47:40Z</time>
      </trkpt>
      <trkpt lat="45.88085" lon="6.40464">
        <ele>1531.5</ele>
        <time>2021-08-25T14:47:46Z</time>
      </trkpt>
      <trkpt lat="45.88088" lon="6.40463">
        <ele>1532.2</ele>
        <time>2021-08-25T14:48:00Z</time>
      </trkpt>
      <trkpt lat="45.88091" lon="6.40461">
        <ele>1532.9</ele>
        <time>2021-08-25T14:48:07Z</time>
      </trkpt>
      <trkpt lat="45.88095" lon="6.40462">
        <ele>1533.2</ele>
        <time>2021-08-25T14:48:15Z</time>
      </trkpt>
      <trkpt lat="45.88105" lon="6.40464">
        <ele>1534</ele>
        <time>2021-08-25T14:48:29Z</time>
      </trkpt>
      <trkpt lat="45.88116" lon="6.40471">
        <ele>1534.1</ele>
        <time>2021-08-25T14:48:31Z</time>
      </trkpt>
      <trkpt lat="45.88124" lon="6.40475">
        <ele>1534.1</ele>
        <time>2021-08-25T14:48:37Z</time>
      </trkpt>
      <trkpt lat="45.88136" lon="6.40486">
        <ele>1533.4</ele>
        <time>2021-08-25T14:48:39Z</time>
      </trkpt>
      <trkpt lat="45.8815" lon="6.40493">
        <ele>1533.6</ele>
        <time>2021-08-25T14:48:51Z</time>
      </trkpt>
      <trkpt lat="45.88157" lon="6.40493">
        <ele>1534.4</ele>
        <time>2021-08-25T14:49:03Z</time>
      </trkpt>
      <trkpt lat="45.88156" lon="6.40491">
        <ele>1534.6</ele>
        <time>2021-08-25T14:49:14Z</time>
      </trkpt>
      <trkpt lat="45.88151" lon="6.40477">
        <ele>1537.1</ele>
        <time>2021-08-25T14:49:24Z</time>
      </trkpt>
      <trkpt lat="45.8815" lon="6.40468">
        <ele>1538.9</ele>
        <time>2021-08-25T14:49:26Z</time>
      </trkpt>
      <trkpt lat="45.8815" lon="6.40459">
        <ele>1540.8</ele>
        <time>2021-08-25T14:49:43Z</time>
      </trkpt>
      <trkpt lat="45.88152" lon="6.40448">
        <ele>1543.2</ele>
        <time>2021-08-25T14:50:03Z</time>
      </trkpt>
      <trkpt lat="45.88152" lon="6.40447">
        <ele>1543.5</ele>
        <time>2021-08-25T14:50:08Z</time>
      </trkpt>
      <trkpt lat="45.88153" lon="6.40442">
        <ele>1544.9</ele>
        <time>2021-08-25T14:50:27Z</time>
      </trkpt>
      <trkpt lat="45.88154" lon="6.40434">
        <ele>1546.6</ele>
        <time>2021-08-25T14:50:29Z</time>
      </trkpt>
      <trkpt lat="45.88154" lon="6.40429">
        <ele>1547.7</ele>
        <time>2021-08-25T14:50:35Z</time>
      </trkpt>
      <trkpt lat="45.88153" lon="6.40426">
        <ele>1548.1</ele>
        <time>2021-08-25T14:50:55Z</time>
      </trkpt>
      <trkpt lat="45.8815" lon="6.40418">
        <ele>1549.6</ele>
        <time>2021-08-25T14:51:08Z</time>
      </trkpt>
      <trkpt lat="45.88148" lon="6.40415">
        <ele>1549.7</ele>
        <time>2021-08-25T14:51:14Z</time>
      </trkpt>
      <trkpt lat="45.88147" lon="6.4041">
        <ele>1549.8</ele>
        <time>2021-08-25T14:51:25Z</time>
      </trkpt>
      <trkpt lat="45.88145" lon="6.40394">
        <ele>1550.5</ele>
        <time>2021-08-25T14:51:43Z</time>
      </trkpt>
      <trkpt lat="45.88145" lon="6.40386">
        <ele>1551</ele>
        <time>2021-08-25T14:51:48Z</time>
      </trkpt>
      <trkpt lat="45.88152" lon="6.40377">
        <ele>1552.4</ele>
        <time>2021-08-25T14:52:07Z</time>
      </trkpt>
      <trkpt lat="45.88154" lon="6.40374">
        <ele>1552.9</ele>
        <time>2021-08-25T14:52:24Z</time>
      </trkpt>
      <trkpt lat="45.88158" lon="6.40367">
        <ele>1553.9</ele>
        <time>2021-08-25T14:52:27Z</time>
      </trkpt>
      <trkpt lat="45.88158" lon="6.40366">
        <ele>1553.9</ele>
        <time>2021-08-25T14:52:40Z</time>
      </trkpt>
      <trkpt lat="45.88162" lon="6.40359">
        <ele>1554.8</ele>
        <time>2021-08-25T14:52:54Z</time>
      </trkpt>
      <trkpt lat="45.88165" lon="6.40355">
        <ele>1555.5</ele>
        <time>2021-08-25T14:53:08Z</time>
      </trkpt>
      <trkpt lat="45.88168" lon="6.40353">
        <ele>1556</ele>
        <time>2021-08-25T14:53:16Z</time>
      </trkpt>
      <trkpt lat="45.88177" lon="6.40345">
        <ele>1558.5</ele>
        <time>2021-08-25T14:53:30Z</time>
      </trkpt>
      <trkpt lat="45.88184" lon="6.40337">
        <ele>1560.7</ele>
        <time>2021-08-25T14:53:44Z</time>
      </trkpt>
      <trkpt lat="45.88189" lon="6.40335">
        <ele>1562</ele>
        <time>2021-08-25T14:53:46Z</time>
      </trkpt>
      <trkpt lat="45.88191" lon="6.40336">
        <ele>1562.3</ele>
        <time>2021-08-25T14:53:49Z</time>
      </trkpt>
      <trkpt lat="45.88196" lon="6.40335">
        <ele>1563.6</ele>
        <time>2021-08-25T14:54:02Z</time>
      </trkpt>
      <trkpt lat="45.882" lon="6.40332">
        <ele>1564.7</ele>
        <time>2021-08-25T14:54:14Z</time>
      </trkpt>
      <trkpt lat="45.88211" lon="6.40328">
        <ele>1567.3</ele>
        <time>2021-08-25T14:54:19Z</time>
      </trkpt>
      <trkpt lat="45.88218" lon="6.40333">
        <ele>1568.6</ele>
        <time>2021-08-25T14:54:22Z</time>
      </trkpt>
      <trkpt lat="45.88221" lon="6.40336">
        <ele>1569.3</ele>
        <time>2021-08-25T14:54:36Z</time>
      </trkpt>
      <trkpt lat="45.8823" lon="6.40339">
        <ele>1570.9</ele>
        <time>2021-08-25T14:54:55Z</time>
      </trkpt>
      <trkpt lat="45.88231" lon="6.40341">
        <ele>1571</ele>
        <time>2021-08-25T14:54:59Z</time>
      </trkpt>
      <trkpt lat="45.88238" lon="6.40346">
        <ele>1572.1</ele>
        <time>2021-08-25T14:55:18Z</time>
      </trkpt>
      <trkpt lat="45.88249" lon="6.40349">
        <ele>1574.2</ele>
        <time>2021-08-25T14:55:30Z</time>
      </trkpt>
      <trkpt lat="45.88257" lon="6.40354">
        <ele>1574.9</ele>
        <time>2021-08-25T14:55:34Z</time>
      </trkpt>
      <trkpt lat="45.88259" lon="6.40356">
        <ele>1575.1</ele>
        <time>2021-08-25T14:55:53Z</time>
      </trkpt>
      <trkpt lat="45.88262" lon="6.40356">
        <ele>1575.5</ele>
        <time>2021-08-25T14:56:06Z</time>
      </trkpt>
      <trkpt lat="45.88268" lon="6.40356">
        <ele>1576.3</ele>
        <time>2021-08-25T14:56:10Z</time>
      </trkpt>
      <trkpt lat="45.88275" lon="6.40355">
        <ele>1577.3</ele>
        <time>2021-08-25T14:56:20Z</time>
      </trkpt>
      <trkpt lat="45.8828" lon="6.40353">
        <ele>1578.2</ele>
        <time>2021-08-25T14:56:28Z</time>
      </trkpt>
      <trkpt lat="45.88288" lon="6.40347">
        <ele>1580.5</ele>
        <time>2021-08-25T14:56:44Z</time>
      </trkpt>
      <trkpt lat="45.88299" lon="6.40335">
        <ele>1584</ele>
        <time>2021-08-25T14:56:52Z</time>
      </trkpt>
      <trkpt lat="45.8831" lon="6.40325">
        <ele>1586.5</ele>
        <time>2021-08-25T14:57:12Z</time>
      </trkpt>
      <trkpt lat="45.88316" lon="6.40321">
        <ele>1587.6</ele>
        <time>2021-08-25T14:57:25Z</time>
      </trkpt>
      <trkpt lat="45.8832" lon="6.40313">
        <ele>1588.7</ele>
        <time>2021-08-25T14:57:41Z</time>
      </trkpt>
      <trkpt lat="45.8832" lon="6.40309">
        <ele>1588.8</ele>
        <time>2021-08-25T14:57:49Z</time>
      </trkpt>
      <trkpt lat="45.88324" lon="6.40299">
        <ele>1590</ele>
        <time>2021-08-25T14:58:04Z</time>
      </trkpt>
      <trkpt lat="45.8833" lon="6.4029">
        <ele>1591.5</ele>
        <time>2021-08-25T14:58:24Z</time>
      </trkpt>
      <trkpt lat="45.88337" lon="6.40273">
        <ele>1592.4</ele>
        <time>2021-08-25T14:58:26Z</time>
      </trkpt>
      <trkpt lat="45.88339" lon="6.40271">
        <ele>1592.2</ele>
        <time>2021-08-25T14:58:31Z</time>
      </trkpt>
      <trkpt lat="45.88343" lon="6.40265">
        <ele>1592.2</ele>
        <time>2021-08-25T14:58:47Z</time>
      </trkpt>
      <trkpt lat="45.88352" lon="6.40265">
        <ele>1591.1</ele>
        <time>2021-08-25T14:58:56Z</time>
      </trkpt>
      <trkpt lat="45.88362" lon="6.40253">
        <ele>1591.6</ele>
        <time>2021-08-25T14:59:00Z</time>
      </trkpt>
      <trkpt lat="45.88362" lon="6.4025">
        <ele>1591.9</ele>
        <time>2021-08-25T14:59:07Z</time>
      </trkpt>
      <trkpt lat="45.88363" lon="6.40245">
        <ele>1592.3</ele>
        <time>2021-08-25T14:59:09Z</time>
      </trkpt>
      <trkpt lat="45.88366" lon="6.40235">
        <ele>1592.8</ele>
        <time>2021-08-25T14:59:17Z</time>
      </trkpt>
      <trkpt lat="45.8837" lon="6.40225">
        <ele>1593.4</ele>
        <time>2021-08-25T14:59:32Z</time>
      </trkpt>
      <trkpt lat="45.88371" lon="6.40224">
        <ele>1593.5</ele>
        <time>2021-08-25T14:59:46Z</time>
      </trkpt>
      <trkpt lat="45.88379" lon="6.40215">
        <ele>1594.1</ele>
        <time>2021-08-25T14:59:50Z</time>
      </trkpt>
      <trkpt lat="45.88381" lon="6.40199">
        <ele>1595.7</ele>
        <time>2021-08-25T14:59:57Z</time>
      </trkpt>
      <trkpt lat="45.88378" lon="6.40193">
        <ele>1596.2</ele>
        <time>2021-08-25T15:00:06Z</time>
      </trkpt>
      <trkpt lat="45.88378" lon="6.40174">
        <ele>1598</ele>
        <time>2021-08-25T15:00:16Z</time>
      </trkpt>
      <trkpt lat="45.88383" lon="6.40162">
        <ele>1599.1</ele>
        <time>2021-08-25T15:00:27Z</time>
      </trkpt>
      <trkpt lat="45.88385" lon="6.40149">
        <ele>1599.7</ele>
        <time>2021-08-25T15:00:41Z</time>
      </trkpt>
      <trkpt lat="45.88391" lon="6.40136">
        <ele>1600.7</ele>
        <time>2021-08-25T15:01:00Z</time>
      </trkpt>
      <trkpt lat="45.88391" lon="6.40132">
        <ele>1600.9</ele>
        <time>2021-08-25T15:01:13Z</time>
      </trkpt>
      <trkpt lat="45.88396" lon="6.4012">
        <ele>1601.9</ele>
        <time>2021-08-25T15:01:32Z</time>
      </trkpt>
      <trkpt lat="45.88407" lon="6.40115">
        <ele>1603.2</ele>
        <time>2021-08-25T15:01:41Z</time>
      </trkpt>
      <trkpt lat="45.88413" lon="6.40113">
        <ele>1603.8</ele>
        <time>2021-08-25T15:01:45Z</time>
      </trkpt>
      <trkpt lat="45.88427" lon="6.40107">
        <ele>1603.1</ele>
        <time>2021-08-25T15:01:55Z</time>
      </trkpt>
      <trkpt lat="45.88429" lon="6.40105">
        <ele>1602.9</ele>
        <time>2021-08-25T15:02:01Z</time>
      </trkpt>
      <trkpt lat="45.88425" lon="6.40091">
        <ele>1604.4</ele>
        <time>2021-08-25T15:02:05Z</time>
      </trkpt>
      <trkpt lat="45.88426" lon="6.40081">
        <ele>1605</ele>
        <time>2021-08-25T15:02:14Z</time>
      </trkpt>
      <trkpt lat="45.88435" lon="6.40078">
        <ele>1604</ele>
        <time>2021-08-25T15:02:24Z</time>
      </trkpt>
      <trkpt lat="45.88443" lon="6.4007">
        <ele>1603.8</ele>
        <time>2021-08-25T15:02:37Z</time>
      </trkpt>
      <trkpt lat="45.88444" lon="6.40068">
        <ele>1603.9</ele>
        <time>2021-08-25T15:02:39Z</time>
      </trkpt>
      <trkpt lat="45.88447" lon="6.40057">
        <ele>1604.5</ele>
        <time>2021-08-25T15:02:42Z</time>
      </trkpt>
      <trkpt lat="45.8845" lon="6.40048">
        <ele>1605.1</ele>
        <time>2021-08-25T15:03:00Z</time>
      </trkpt>
      <trkpt lat="45.88444" lon="6.40032">
        <ele>1607.1</ele>
        <time>2021-08-25T15:03:10Z</time>
      </trkpt>
      <trkpt lat="45.88442" lon="6.40027">
        <ele>1607.7</ele>
        <time>2021-08-25T15:03:23Z</time>
      </trkpt>
      <trkpt lat="45.88444" lon="6.40019">
        <ele>1608.3</ele>
        <time>2021-08-25T15:03:25Z</time>
      </trkpt>
      <trkpt lat="45.88446" lon="6.40006">
        <ele>1609.4</ele>
        <time>2021-08-25T15:03:40Z</time>
      </trkpt>
      <trkpt lat="45.88451" lon="6.39998">
        <ele>1610.1</ele>
        <time>2021-08-25T15:03:43Z</time>
      </trkpt>
      <trkpt lat="45.8845" lon="6.39978">
        <ele>1612.9</ele>
        <time>2021-08-25T15:03:59Z</time>
      </trkpt>
      <trkpt lat="45.88454" lon="6.3997">
        <ele>1614.1</ele>
        <time>2021-08-25T15:04:10Z</time>
      </trkpt>
      <trkpt lat="45.88458" lon="6.39959">
        <ele>1616</ele>
        <time>2021-08-25T15:04:12Z</time>
      </trkpt>
      <trkpt lat="45.88465" lon="6.39949">
        <ele>1617.8</ele>
        <time>2021-08-25T15:04:18Z</time>
      </trkpt>
      <trkpt lat="45.88466" lon="6.39939">
        <ele>1619.4</ele>
        <time>2021-08-25T15:04:38Z</time>
      </trkpt>
      <trkpt lat="45.88461" lon="6.39935">
        <ele>1619.8</ele>
        <time>2021-08-25T15:04:54Z</time>
      </trkpt>
      <trkpt lat="45.88463" lon="6.39933">
        <ele>1620.2</ele>
        <time>2021-08-25T15:05:03Z</time>
      </trkpt>
      <trkpt lat="45.88463" lon="6.39933">
        <ele>1620.2</ele>
        <time>2021-08-25T15:05:22Z</time>
      </trkpt>
      <trkpt lat="45.88468" lon="6.39932">
        <ele>1620.6</ele>
        <time>2021-08-25T15:05:30Z</time>
      </trkpt>
      <trkpt lat="45.88481" lon="6.39927">
        <ele>1622.6</ele>
        <time>2021-08-25T15:05:38Z</time>
      </trkpt>
      <trkpt lat="45.8849" lon="6.39926">
        <ele>1623.2</ele>
        <time>2021-08-25T15:05:43Z</time>
      </trkpt>
      <trkpt lat="45.88491" lon="6.39926">
        <ele>1623.3</ele>
        <time>2021-08-25T15:05:57Z</time>
      </trkpt>
      <trkpt lat="45.88494" lon="6.39924">
        <ele>1624.1</ele>
        <time>2021-08-25T15:06:05Z</time>
      </trkpt>
      <trkpt lat="45.88497" lon="6.3992">
        <ele>1625</ele>
        <time>2021-08-25T15:06:08Z</time>
      </trkpt>
      <trkpt lat="45.88504" lon="6.39916">
        <ele>1625</ele>
        <time>2021-08-25T15:06:13Z</time>
      </trkpt>
      <trkpt lat="45.8851" lon="6.39914">
        <ele>1624</ele>
        <time>2021-08-25T15:06:33Z</time>
      </trkpt>
      <trkpt lat="45.88512" lon="6.39901">
        <ele>1626</ele>
        <time>2021-08-25T15:06:47Z</time>
      </trkpt>
      <trkpt lat="45.88512" lon="6.39894">
        <ele>1627.5</ele>
        <time>2021-08-25T15:07:00Z</time>
      </trkpt>
      <trkpt lat="45.88519" lon="6.39889">
        <ele>1627</ele>
        <time>2021-08-25T15:07:06Z</time>
      </trkpt>
      <trkpt lat="45.88523" lon="6.39884">
        <ele>1627.6</ele>
        <time>2021-08-25T15:07:14Z</time>
      </trkpt>
      <trkpt lat="45.88524" lon="6.39884">
        <ele>1627.6</ele>
        <time>2021-08-25T15:07:21Z</time>
      </trkpt>
      <trkpt lat="45.88527" lon="6.39879">
        <ele>1628.1</ele>
        <time>2021-08-25T15:07:27Z</time>
      </trkpt>
      <trkpt lat="45.88528" lon="6.39872">
        <ele>1629.7</ele>
        <time>2021-08-25T15:07:43Z</time>
      </trkpt>
      <trkpt lat="45.88532" lon="6.39862">
        <ele>1632</ele>
        <time>2021-08-25T15:07:59Z</time>
      </trkpt>
      <trkpt lat="45.88538" lon="6.39859">
        <ele>1632.1</ele>
        <time>2021-08-25T15:08:06Z</time>
      </trkpt>
      <trkpt lat="45.88542" lon="6.39859">
        <ele>1631.8</ele>
        <time>2021-08-25T15:08:21Z</time>
      </trkpt>
      <trkpt lat="45.88545" lon="6.39854">
        <ele>1632.8</ele>
        <time>2021-08-25T15:08:24Z</time>
      </trkpt>
      <trkpt lat="45.88549" lon="6.39852">
        <ele>1633.2</ele>
        <time>2021-08-25T15:08:27Z</time>
      </trkpt>
      <trkpt lat="45.88548" lon="6.39854">
        <ele>1632.6</ele>
        <time>2021-08-25T15:08:42Z</time>
      </trkpt>
      <trkpt lat="45.88548" lon="6.39854">
        <ele>1632.7</ele>
        <time>2021-08-25T15:08:47Z</time>
      </trkpt>
      <trkpt lat="45.88548" lon="6.39852">
        <ele>1633.1</ele>
        <time>2021-08-25T15:09:00Z</time>
      </trkpt>
      <trkpt lat="45.88549" lon="6.39851">
        <ele>1633.5</ele>
        <time>2021-08-25T15:09:14Z</time>
      </trkpt>
      <trkpt lat="45.88549" lon="6.39849">
        <ele>1633.9</ele>
        <time>2021-08-25T15:09:32Z</time>
      </trkpt>
      <trkpt lat="45.88556" lon="6.39839">
        <ele>1636.7</ele>
        <time>2021-08-25T15:09:41Z</time>
      </trkpt>
      <trkpt lat="45.8856" lon="6.39832">
        <ele>1638.8</ele>
        <time>2021-08-25T15:10:01Z</time>
      </trkpt>
      <trkpt lat="45.88562" lon="6.3983">
        <ele>1639</ele>
        <time>2021-08-25T15:10:11Z</time>
      </trkpt>
      <trkpt lat="45.88566" lon="6.39819">
        <ele>1640.6</ele>
        <time>2021-08-25T15:10:31Z</time>
      </trkpt>
      <trkpt lat="45.88566" lon="6.39813">
        <ele>1641.5</ele>
        <time>2021-08-25T15:10:51Z</time>
      </trkpt>
      <trkpt lat="45.88562" lon="6.39791">
        <ele>1644.5</ele>
        <time>2021-08-25T15:10:57Z</time>
      </trkpt>
      <trkpt lat="45.88562" lon="6.39787">
        <ele>1645.1</ele>
        <time>2021-08-25T15:11:04Z</time>
      </trkpt>
      <trkpt lat="45.88565" lon="6.39778">
        <ele>1646.7</ele>
        <time>2021-08-25T15:11:24Z</time>
      </trkpt>
      <trkpt lat="45.88567" lon="6.39768">
        <ele>1648.3</ele>
        <time>2021-08-25T15:11:33Z</time>
      </trkpt>
      <trkpt lat="45.88568" lon="6.39758">
        <ele>1649.9</ele>
        <time>2021-08-25T15:11:40Z</time>
      </trkpt>
      <trkpt lat="45.8857" lon="6.39748">
        <ele>1651.6</ele>
        <time>2021-08-25T15:11:59Z</time>
      </trkpt>
      <trkpt lat="45.88572" lon="6.3973">
        <ele>1654.3</ele>
        <time>2021-08-25T15:12:03Z</time>
      </trkpt>
      <trkpt lat="45.88576" lon="6.39723">
        <ele>1655.6</ele>
        <time>2021-08-25T15:12:12Z</time>
      </trkpt>
      <trkpt lat="45.88577" lon="6.39707">
        <ele>1657.8</ele>
        <time>2021-08-25T15:12:14Z</time>
      </trkpt>
      <trkpt lat="45.88574" lon="6.39686">
        <ele>1660.2</ele>
        <time>2021-08-25T15:12:18Z</time>
      </trkpt>
      <trkpt lat="45.88573" lon="6.39683">
        <ele>1660.4</ele>
        <time>2021-08-25T15:12:22Z</time>
      </trkpt>
      <trkpt lat="45.88573" lon="6.39671">
        <ele>1661.8</ele>
        <time>2021-08-25T15:12:34Z</time>
      </trkpt>
      <trkpt lat="45.8857" lon="6.39655">
        <ele>1663.7</ele>
        <time>2021-08-25T15:12:41Z</time>
      </trkpt>
      <trkpt lat="45.88572" lon="6.39641">
        <ele>1666.1</ele>
        <time>2021-08-25T15:12:52Z</time>
      </trkpt>
      <trkpt lat="45.88568" lon="6.3963">
        <ele>1667.1</ele>
        <time>2021-08-25T15:13:06Z</time>
      </trkpt>
      <trkpt lat="45.88565" lon="6.39622">
        <ele>1667.9</ele>
        <time>2021-08-25T15:13:20Z</time>
      </trkpt>
      <trkpt lat="45.88565" lon="6.3962">
        <ele>1668.2</ele>
        <time>2021-08-25T15:13:26Z</time>
      </trkpt>
      <trkpt lat="45.88568" lon="6.39607">
        <ele>1670.3</ele>
        <time>2021-08-25T15:13:42Z</time>
      </trkpt>
      <trkpt lat="45.88567" lon="6.396">
        <ele>1671.2</ele>
        <time>2021-08-25T15:14:02Z</time>
      </trkpt>
      <trkpt lat="45.88568" lon="6.3958">
        <ele>1674.2</ele>
        <time>2021-08-25T15:14:09Z</time>
      </trkpt>
      <trkpt lat="45.88569" lon="6.39575">
        <ele>1674.9</ele>
        <time>2021-08-25T15:14:21Z</time>
      </trkpt>
      <trkpt lat="45.88563" lon="6.3956">
        <ele>1676.6</ele>
        <time>2021-08-25T15:14:37Z</time>
      </trkpt>
      <trkpt lat="45.88563" lon="6.39559">
        <ele>1676.7</ele>
        <time>2021-08-25T15:14:43Z</time>
      </trkpt>
      <trkpt lat="45.88562" lon="6.39549">
        <ele>1678</ele>
        <time>2021-08-25T15:14:52Z</time>
      </trkpt>
      <trkpt lat="45.88561" lon="6.39546">
        <ele>1678.4</ele>
        <time>2021-08-25T15:15:05Z</time>
      </trkpt>
      <trkpt lat="45.88559" lon="6.39543">
        <ele>1678.6</ele>
        <time>2021-08-25T15:15:18Z</time>
      </trkpt>
      <trkpt lat="45.88556" lon="6.39533">
        <ele>1679.9</ele>
        <time>2021-08-25T15:15:38Z</time>
      </trkpt>
      <trkpt lat="45.88556" lon="6.39532">
        <ele>1680</ele>
        <time>2021-08-25T15:15:42Z</time>
      </trkpt>
      <trkpt lat="45.88555" lon="6.39529">
        <ele>1680.5</ele>
        <time>2021-08-25T15:15:45Z</time>
      </trkpt>
      <trkpt lat="45.88555" lon="6.39529">
        <ele>1680.4</ele>
        <time>2021-08-25T15:16:04Z</time>
      </trkpt>
      <trkpt lat="45.88556" lon="6.39516">
        <ele>1682.3</ele>
        <time>2021-08-25T15:16:19Z</time>
      </trkpt>
      <trkpt lat="45.88554" lon="6.39509">
        <ele>1683.2</ele>
        <time>2021-08-25T15:16:26Z</time>
      </trkpt>
      <trkpt lat="45.88554" lon="6.39499">
        <ele>1684.7</ele>
        <time>2021-08-25T15:16:38Z</time>
      </trkpt>
      <trkpt lat="45.88553" lon="6.39501">
        <ele>1684.4</ele>
        <time>2021-08-25T15:16:42Z</time>
      </trkpt>
      <trkpt lat="45.88552" lon="6.39504">
        <ele>1683.9</ele>
        <time>2021-08-25T15:16:49Z</time>
      </trkpt>
      <trkpt lat="45.88554" lon="6.39506">
        <ele>1683.8</ele>
        <time>2021-08-25T15:16:59Z</time>
      </trkpt>
      <trkpt lat="45.88554" lon="6.39506">
        <ele>1683.7</ele>
        <time>2021-08-25T15:17:18Z</time>
      </trkpt>
      <trkpt lat="45.88555" lon="6.39507">
        <ele>1683.7</ele>
        <time>2021-08-25T15:17:38Z</time>
      </trkpt>
      <trkpt lat="45.88564" lon="6.39499">
        <ele>1685.2</ele>
        <time>2021-08-25T15:17:43Z</time>
      </trkpt>
      <trkpt lat="45.88564" lon="6.39495">
        <ele>1685.5</ele>
        <time>2021-08-25T15:18:00Z</time>
      </trkpt>
      <trkpt lat="45.88563" lon="6.39488">
        <ele>1686</ele>
        <time>2021-08-25T15:18:12Z</time>
      </trkpt>
      <trkpt lat="45.88564" lon="6.39481">
        <ele>1686.6</ele>
        <time>2021-08-25T15:18:31Z</time>
      </trkpt>
      <trkpt lat="45.88564" lon="6.39473">
        <ele>1687.3</ele>
        <time>2021-08-25T15:18:50Z</time>
      </trkpt>
      <trkpt lat="45.88564" lon="6.3946">
        <ele>1688.4</ele>
        <time>2021-08-25T15:19:00Z</time>
      </trkpt>
      <trkpt lat="45.88564" lon="6.39455">
        <ele>1688.7</ele>
        <time>2021-08-25T15:19:07Z</time>
      </trkpt>
      <trkpt lat="45.88565" lon="6.39441">
        <ele>1689.9</ele>
        <time>2021-08-25T15:19:15Z</time>
      </trkpt>
      <trkpt lat="45.88562" lon="6.39431">
        <ele>1690.8</ele>
        <time>2021-08-25T15:19:32Z</time>
      </trkpt>
      <trkpt lat="45.88558" lon="6.3942">
        <ele>1691.9</ele>
        <time>2021-08-25T15:19:42Z</time>
      </trkpt>
      <trkpt lat="45.88552" lon="6.39411">
        <ele>1692.4</ele>
        <time>2021-08-25T15:19:53Z</time>
      </trkpt>
      <trkpt lat="45.88552" lon="6.39406">
        <ele>1692.3</ele>
        <time>2021-08-25T15:20:03Z</time>
      </trkpt>
      <trkpt lat="45.88551" lon="6.39405">
        <ele>1692.3</ele>
        <time>2021-08-25T15:20:22Z</time>
      </trkpt>
      <trkpt lat="45.88551" lon="6.39392">
        <ele>1692.1</ele>
        <time>2021-08-25T15:20:28Z</time>
      </trkpt>
      <trkpt lat="45.88547" lon="6.39381">
        <ele>1692.3</ele>
        <time>2021-08-25T15:20:37Z</time>
      </trkpt>
      <trkpt lat="45.88544" lon="6.39372">
        <ele>1692.5</ele>
        <time>2021-08-25T15:20:46Z</time>
      </trkpt>
      <trkpt lat="45.88544" lon="6.39369">
        <ele>1692.5</ele>
        <time>2021-08-25T15:21:00Z</time>
      </trkpt>
      <trkpt lat="45.88542" lon="6.39361">
        <ele>1692.7</ele>
        <time>2021-08-25T15:21:11Z</time>
      </trkpt>
      <trkpt lat="45.88539" lon="6.39349">
        <ele>1692.9</ele>
        <time>2021-08-25T15:21:18Z</time>
      </trkpt>
      <trkpt lat="45.88542" lon="6.39331">
        <ele>1692.3</ele>
        <time>2021-08-25T15:21:38Z</time>
      </trkpt>
      <trkpt lat="45.88543" lon="6.3932">
        <ele>1691.4</ele>
        <time>2021-08-25T15:21:47Z</time>
      </trkpt>
      <trkpt lat="45.88539" lon="6.3931">
        <ele>1691.3</ele>
        <time>2021-08-25T15:21:59Z</time>
      </trkpt>
      <trkpt lat="45.88537" lon="6.39303">
        <ele>1691.2</ele>
        <time>2021-08-25T15:22:05Z</time>
      </trkpt>
      <trkpt lat="45.88535" lon="6.39297">
        <ele>1691</ele>
        <time>2021-08-25T15:22:15Z</time>
      </trkpt>
      <trkpt lat="45.88532" lon="6.39285">
        <ele>1690.8</ele>
        <time>2021-08-25T15:22:25Z</time>
      </trkpt>
      <trkpt lat="45.8853" lon="6.39271">
        <ele>1690.2</ele>
        <time>2021-08-25T15:22:30Z</time>
      </trkpt>
      <trkpt lat="45.88528" lon="6.39248">
        <ele>1689.1</ele>
        <time>2021-08-25T15:22:36Z</time>
      </trkpt>
      <trkpt lat="45.88528" lon="6.39244">
        <ele>1688.4</ele>
        <time>2021-08-25T15:22:50Z</time>
      </trkpt>
      <trkpt lat="45.88524" lon="6.39228">
        <ele>1687.2</ele>
        <time>2021-08-25T15:22:57Z</time>
      </trkpt>
      <trkpt lat="45.88523" lon="6.39221">
        <ele>1686.6</ele>
        <time>2021-08-25T15:23:17Z</time>
      </trkpt>
      <trkpt lat="45.88514" lon="6.39211">
        <ele>1687.9</ele>
        <time>2021-08-25T15:23:35Z</time>
      </trkpt>
      <trkpt lat="45.88511" lon="6.39205">
        <ele>1687.9</ele>
        <time>2021-08-25T15:23:52Z</time>
      </trkpt>
      <trkpt lat="45.88507" lon="6.39198">
        <ele>1688.3</ele>
        <time>2021-08-25T15:24:01Z</time>
      </trkpt>
      <trkpt lat="45.88504" lon="6.39193">
        <ele>1688.8</ele>
        <time>2021-08-25T15:24:17Z</time>
      </trkpt>
      <trkpt lat="45.88499" lon="6.39179">
        <ele>1688.8</ele>
        <time>2021-08-25T15:24:28Z</time>
      </trkpt>
      <trkpt lat="45.88491" lon="6.39168">
        <ele>1686.7</ele>
        <time>2021-08-25T15:24:32Z</time>
      </trkpt>
      <trkpt lat="45.88491" lon="6.39167">
        <ele>1686.6</ele>
        <time>2021-08-25T15:24:39Z</time>
      </trkpt>
      <trkpt lat="45.88486" lon="6.39161">
        <ele>1685.2</ele>
        <time>2021-08-25T15:24:44Z</time>
      </trkpt>
      <trkpt lat="45.88482" lon="6.39147">
        <ele>1683.3</ele>
        <time>2021-08-25T15:25:02Z</time>
      </trkpt>
      <trkpt lat="45.88482" lon="6.39146">
        <ele>1683.1</ele>
        <time>2021-08-25T15:25:12Z</time>
      </trkpt>
      <trkpt lat="45.88476" lon="6.39129">
        <ele>1681.1</ele>
        <time>2021-08-25T15:25:22Z</time>
      </trkpt>
      <trkpt lat="45.88466" lon="6.39115">
        <ele>1680</ele>
        <time>2021-08-25T15:25:28Z</time>
      </trkpt>
      <trkpt lat="45.88461" lon="6.39102">
        <ele>1679.5</ele>
        <time>2021-08-25T15:25:33Z</time>
      </trkpt>
      <trkpt lat="45.88456" lon="6.39091">
        <ele>1679.4</ele>
        <time>2021-08-25T15:25:51Z</time>
      </trkpt>
      <trkpt lat="45.88453" lon="6.39085">
        <ele>1679.6</ele>
        <time>2021-08-25T15:25:53Z</time>
      </trkpt>
      <trkpt lat="45.8845" lon="6.39068">
        <ele>1679.6</ele>
        <time>2021-08-25T15:26:08Z</time>
      </trkpt>
      <trkpt lat="45.88444" lon="6.39056">
        <ele>1680.7</ele>
        <time>2021-08-25T15:26:21Z</time>
      </trkpt>
      <trkpt lat="45.88441" lon="6.39047">
        <ele>1681.4</ele>
        <time>2021-08-25T15:26:28Z</time>
      </trkpt>
      <trkpt lat="45.88437" lon="6.39035">
        <ele>1683</ele>
        <time>2021-08-25T15:26:42Z</time>
      </trkpt>
      <trkpt lat="45.88432" lon="6.39027">
        <ele>1684.7</ele>
        <time>2021-08-25T15:26:52Z</time>
      </trkpt>
      <trkpt lat="45.88432" lon="6.39026">
        <ele>1684.9</ele>
        <time>2021-08-25T15:26:59Z</time>
      </trkpt>
      <trkpt lat="45.8843" lon="6.39015">
        <ele>1686.4</ele>
        <time>2021-08-25T15:27:05Z</time>
      </trkpt>
      <trkpt lat="45.88429" lon="6.39014">
        <ele>1686.6</ele>
        <time>2021-08-25T15:27:22Z</time>
      </trkpt>
      <trkpt lat="45.88428" lon="6.39001">
        <ele>1688.1</ele>
        <time>2021-08-25T15:27:27Z</time>
      </trkpt>
      <trkpt lat="45.88426" lon="6.38997">
        <ele>1689.2</ele>
        <time>2021-08-25T15:27:36Z</time>
      </trkpt>
      <trkpt lat="45.88419" lon="6.38977">
        <ele>1693.7</ele>
        <time>2021-08-25T15:27:46Z</time>
      </trkpt>
      <trkpt lat="45.88417" lon="6.38964">
        <ele>1696</ele>
        <time>2021-08-25T15:27:57Z</time>
      </trkpt>
      <trkpt lat="45.88417" lon="6.38963">
        <ele>1696.1</ele>
        <time>2021-08-25T15:28:05Z</time>
      </trkpt>
      <trkpt lat="45.88417" lon="6.38956">
        <ele>1696.7</ele>
        <time>2021-08-25T15:28:17Z</time>
      </trkpt>
      <trkpt lat="45.88417" lon="6.3895">
        <ele>1697.1</ele>
        <time>2021-08-25T15:28:37Z</time>
      </trkpt>
      <trkpt lat="45.88411" lon="6.38934">
        <ele>1697.8</ele>
        <time>2021-08-25T15:28:51Z</time>
      </trkpt>
      <trkpt lat="45.88409" lon="6.38929">
        <ele>1698</ele>
        <time>2021-08-25T15:29:11Z</time>
      </trkpt>
      <trkpt lat="45.88408" lon="6.38926">
        <ele>1698.2</ele>
        <time>2021-08-25T15:29:20Z</time>
      </trkpt>
      <trkpt lat="45.88408" lon="6.38922">
        <ele>1698.5</ele>
        <time>2021-08-25T15:29:38Z</time>
      </trkpt>
      <trkpt lat="45.88409" lon="6.38917">
        <ele>1699</ele>
        <time>2021-08-25T15:29:48Z</time>
      </trkpt>
      <trkpt lat="45.88402" lon="6.38899">
        <ele>1697.8</ele>
        <time>2021-08-25T15:30:00Z</time>
      </trkpt>
      <trkpt lat="45.88399" lon="6.38894">
        <ele>1697.5</ele>
        <time>2021-08-25T15:30:08Z</time>
      </trkpt>
      <trkpt lat="45.88402" lon="6.38878">
        <ele>1697.4</ele>
        <time>2021-08-25T15:30:28Z</time>
      </trkpt>
      <trkpt lat="45.88404" lon="6.38873">
        <ele>1697.4</ele>
        <time>2021-08-25T15:30:45Z</time>
      </trkpt>
      <trkpt lat="45.88405" lon="6.38861">
        <ele>1697.1</ele>
        <time>2021-08-25T15:30:47Z</time>
      </trkpt>
      <trkpt lat="45.88405" lon="6.3886">
        <ele>1697.1</ele>
        <time>2021-08-25T15:31:07Z</time>
      </trkpt>
      <trkpt lat="45.88406" lon="6.38861">
        <ele>1697.1</ele>
        <time>2021-08-25T15:31:09Z</time>
      </trkpt>
      <trkpt lat="45.88406" lon="6.38861">
        <ele>1697.1</ele>
        <time>2021-08-25T15:31:13Z</time>
      </trkpt>
      <trkpt lat="45.88404" lon="6.38861">
        <ele>1697.1</ele>
        <time>2021-08-25T15:31:32Z</time>
      </trkpt>
      <trkpt lat="45.88404" lon="6.38861">
        <ele>1697.1</ele>
        <time>2021-08-25T15:31:49Z</time>
      </trkpt>
      <trkpt lat="45.88403" lon="6.38858">
        <ele>1697</ele>
        <time>2021-08-25T15:32:02Z</time>
      </trkpt>
      <trkpt lat="45.88397" lon="6.38852">
        <ele>1696.9</ele>
        <time>2021-08-25T15:32:17Z</time>
      </trkpt>
      <trkpt lat="45.88395" lon="6.38845">
        <ele>1696.9</ele>
        <time>2021-08-25T15:32:22Z</time>
      </trkpt>
      <trkpt lat="45.88395" lon="6.38843">
        <ele>1696.9</ele>
        <time>2021-08-25T15:32:32Z</time>
      </trkpt>
      <trkpt lat="45.8839" lon="6.38826">
        <ele>1697</ele>
        <time>2021-08-25T15:32:35Z</time>
      </trkpt>
      <trkpt lat="45.88389" lon="6.38812">
        <ele>1697.2</ele>
        <time>2021-08-25T15:32:51Z</time>
      </trkpt>
      <trkpt lat="45.88385" lon="6.38801">
        <ele>1697.8</ele>
        <time>2021-08-25T15:33:10Z</time>
      </trkpt>
      <trkpt lat="45.88384" lon="6.38799">
        <ele>1697.9</ele>
        <time>2021-08-25T15:33:19Z</time>
      </trkpt>
      <trkpt lat="45.88379" lon="6.38792">
        <ele>1698.5</ele>
        <time>2021-08-25T15:33:31Z</time>
      </trkpt>
      <trkpt lat="45.88373" lon="6.3878">
        <ele>1699.7</ele>
        <time>2021-08-25T15:33:33Z</time>
      </trkpt>
      <trkpt lat="45.88372" lon="6.3878">
        <ele>1699.8</ele>
        <time>2021-08-25T15:33:46Z</time>
      </trkpt>
      <trkpt lat="45.88365" lon="6.38769">
        <ele>1701.3</ele>
        <time>2021-08-25T15:34:03Z</time>
      </trkpt>
      <trkpt lat="45.88359" lon="6.38755">
        <ele>1703.2</ele>
        <time>2021-08-25T15:34:12Z</time>
      </trkpt>
      <trkpt lat="45.88356" lon="6.38747">
        <ele>1704.1</ele>
        <time>2021-08-25T15:34:21Z</time>
      </trkpt>
      <trkpt lat="45.88353" lon="6.3874">
        <ele>1704.9</ele>
        <time>2021-08-25T15:34:26Z</time>
      </trkpt>
      <trkpt lat="45.88353" lon="6.38734">
        <ele>1705.4</ele>
        <time>2021-08-25T15:34:46Z</time>
      </trkpt>
      <trkpt lat="45.88355" lon="6.38729">
        <ele>1704.9</ele>
        <time>2021-08-25T15:34:50Z</time>
      </trkpt>
      <trkpt lat="45.88358" lon="6.3872">
        <ele>1704.7</ele>
        <time>2021-08-25T15:35:05Z</time>
      </trkpt>
      <trkpt lat="45.88358" lon="6.38714">
        <ele>1704.9</ele>
        <time>2021-08-25T15:35:14Z</time>
      </trkpt>
      <trkpt lat="45.88355" lon="6.38706">
        <ele>1705.9</ele>
        <time>2021-08-25T15:35:22Z</time>
      </trkpt>
      <trkpt lat="45.88354" lon="6.38691">
        <ele>1707.1</ele>
        <time>2021-08-25T15:35:29Z</time>
      </trkpt>
      <trkpt lat="45.88351" lon="6.38685">
        <ele>1708.3</ele>
        <time>2021-08-25T15:35:38Z</time>
      </trkpt>
      <trkpt lat="45.88349" lon="6.3868">
        <ele>1709.5</ele>
        <time>2021-08-25T15:35:40Z</time>
      </trkpt>
      <trkpt lat="45.88347" lon="6.38674">
        <ele>1710.7</ele>
        <time>2021-08-25T15:36:00Z</time>
      </trkpt>
      <trkpt lat="45.88347" lon="6.38667">
        <ele>1711.1</ele>
        <time>2021-08-25T15:36:12Z</time>
      </trkpt>
      <trkpt lat="45.88347" lon="6.38658">
        <ele>1711.4</ele>
        <time>2021-08-25T15:36:25Z</time>
      </trkpt>
      <trkpt lat="45.88348" lon="6.38643">
        <ele>1711.4</ele>
        <time>2021-08-25T15:36:42Z</time>
      </trkpt>
      <trkpt lat="45.88348" lon="6.38634">
        <ele>1711.5</ele>
        <time>2021-08-25T15:36:59Z</time>
      </trkpt>
      <trkpt lat="45.88351" lon="6.38623">
        <ele>1709.9</ele>
        <time>2021-08-25T15:37:14Z</time>
      </trkpt>
      <trkpt lat="45.88345" lon="6.38608">
        <ele>1713.3</ele>
        <time>2021-08-25T15:37:31Z</time>
      </trkpt>
      <trkpt lat="45.88342" lon="6.386">
        <ele>1715.2</ele>
        <time>2021-08-25T15:37:38Z</time>
      </trkpt>
      <trkpt lat="45.8834" lon="6.3859">
        <ele>1716.8</ele>
        <time>2021-08-25T15:37:49Z</time>
      </trkpt>
      <trkpt lat="45.8834" lon="6.38575">
        <ele>1716.5</ele>
        <time>2021-08-25T15:38:05Z</time>
      </trkpt>
      <trkpt lat="45.8834" lon="6.38573">
        <ele>1716.4</ele>
        <time>2021-08-25T15:38:20Z</time>
      </trkpt>
      <trkpt lat="45.88334" lon="6.38552">
        <ele>1719.3</ele>
        <time>2021-08-25T15:38:38Z</time>
      </trkpt>
      <trkpt lat="45.88333" lon="6.38549">
        <ele>1719.7</ele>
        <time>2021-08-25T15:38:48Z</time>
      </trkpt>
      <trkpt lat="45.88327" lon="6.38536">
        <ele>1718.8</ele>
        <time>2021-08-25T15:39:00Z</time>
      </trkpt>
      <trkpt lat="45.88325" lon="6.3852">
        <ele>1718.2</ele>
        <time>2021-08-25T15:39:03Z</time>
      </trkpt>
      <trkpt lat="45.88323" lon="6.38511">
        <ele>1717.9</ele>
        <time>2021-08-25T15:39:05Z</time>
      </trkpt>
      <trkpt lat="45.8832" lon="6.38496">
        <ele>1717.5</ele>
        <time>2021-08-25T15:39:25Z</time>
      </trkpt>
      <trkpt lat="45.88318" lon="6.38489">
        <ele>1717.3</ele>
        <time>2021-08-25T15:39:29Z</time>
      </trkpt>
      <trkpt lat="45.88315" lon="6.38476">
        <ele>1717.1</ele>
        <time>2021-08-25T15:39:37Z</time>
      </trkpt>
      <trkpt lat="45.88314" lon="6.38469">
        <ele>1717.1</ele>
        <time>2021-08-25T15:39:43Z</time>
      </trkpt>
      <trkpt lat="45.88308" lon="6.38452">
        <ele>1717</ele>
        <time>2021-08-25T15:39:49Z</time>
      </trkpt>
      <trkpt lat="45.88307" lon="6.3845">
        <ele>1717</ele>
        <time>2021-08-25T15:40:01Z</time>
      </trkpt>
      <trkpt lat="45.88308" lon="6.38436">
        <ele>1717</ele>
        <time>2021-08-25T15:40:14Z</time>
      </trkpt>
      <trkpt lat="45.88304" lon="6.38427">
        <ele>1717</ele>
        <time>2021-08-25T15:40:33Z</time>
      </trkpt>
      <trkpt lat="45.88304" lon="6.38427">
        <ele>1717</ele>
        <time>2021-08-25T15:40:38Z</time>
      </trkpt>
      <trkpt lat="45.88305" lon="6.38428">
        <ele>1717</ele>
        <time>2021-08-25T15:40:56Z</time>
      </trkpt>
      <trkpt lat="45.883" lon="6.38418">
        <ele>1717.2</ele>
        <time>2021-08-25T15:41:10Z</time>
      </trkpt>
      <trkpt lat="45.88299" lon="6.38407">
        <ele>1717</ele>
        <time>2021-08-25T15:41:20Z</time>
      </trkpt>
      <trkpt lat="45.88299" lon="6.384">
        <ele>1716.8</ele>
        <time>2021-08-25T15:41:37Z</time>
      </trkpt>
      <trkpt lat="45.883" lon="6.38393">
        <ele>1716.6</ele>
        <time>2021-08-25T15:41:42Z</time>
      </trkpt>
      <trkpt lat="45.88299" lon="6.38386">
        <ele>1716.4</ele>
        <time>2021-08-25T15:41:57Z</time>
      </trkpt>
      <trkpt lat="45.88299" lon="6.38379">
        <ele>1716.3</ele>
        <time>2021-08-25T15:42:02Z</time>
      </trkpt>
      <trkpt lat="45.88293" lon="6.38371">
        <ele>1716.3</ele>
        <time>2021-08-25T15:42:16Z</time>
      </trkpt>
      <trkpt lat="45.88291" lon="6.38369">
        <ele>1716.4</ele>
        <time>2021-08-25T15:42:20Z</time>
      </trkpt>
      <trkpt lat="45.88287" lon="6.38353">
        <ele>1716.2</ele>
        <time>2021-08-25T15:42:24Z</time>
      </trkpt>
      <trkpt lat="45.88286" lon="6.38338">
        <ele>1716</ele>
        <time>2021-08-25T15:42:37Z</time>
      </trkpt>
      <trkpt lat="45.88285" lon="6.38322">
        <ele>1716.4</ele>
        <time>2021-08-25T15:42:45Z</time>
      </trkpt>
      <trkpt lat="45.88285" lon="6.38315">
        <ele>1716.7</ele>
        <time>2021-08-25T15:43:01Z</time>
      </trkpt>
      <trkpt lat="45.88283" lon="6.38303">
        <ele>1717.3</ele>
        <time>2021-08-25T15:43:14Z</time>
      </trkpt>
      <trkpt lat="45.88285" lon="6.38297">
        <ele>1717.5</ele>
        <time>2021-08-25T15:43:20Z</time>
      </trkpt>
      <trkpt lat="45.88285" lon="6.38295">
        <ele>1717.6</ele>
        <time>2021-08-25T15:43:22Z</time>
      </trkpt>
      <trkpt lat="45.88283" lon="6.38291">
        <ele>1717.9</ele>
        <time>2021-08-25T15:43:27Z</time>
      </trkpt>
      <trkpt lat="45.88279" lon="6.38278">
        <ele>1718.7</ele>
        <time>2021-08-25T15:43:45Z</time>
      </trkpt>
      <trkpt lat="45.88278" lon="6.38279">
        <ele>1718.7</ele>
        <time>2021-08-25T15:43:51Z</time>
      </trkpt>
      <trkpt lat="45.88279" lon="6.3828">
        <ele>1718.6</ele>
        <time>2021-08-25T15:44:01Z</time>
      </trkpt>
      <trkpt lat="45.8828" lon="6.38279">
        <ele>1718.6</ele>
        <time>2021-08-25T15:44:03Z</time>
      </trkpt>
      <trkpt lat="45.88278" lon="6.38276">
        <ele>1718.8</ele>
        <time>2021-08-25T15:44:10Z</time>
      </trkpt>
      <trkpt lat="45.88268" lon="6.38259">
        <ele>1720.3</ele>
        <time>2021-08-25T15:44:29Z</time>
      </trkpt>
      <trkpt lat="45.88266" lon="6.38255">
        <ele>1720.7</ele>
        <time>2021-08-25T15:44:44Z</time>
      </trkpt>
      <trkpt lat="45.88264" lon="6.38251">
        <ele>1720.9</ele>
        <time>2021-08-25T15:44:47Z</time>
      </trkpt>
      <trkpt lat="45.88258" lon="6.38239">
        <ele>1721.5</ele>
        <time>2021-08-25T15:45:01Z</time>
      </trkpt>
      <trkpt lat="45.88258" lon="6.38239">
        <ele>1721.5</ele>
        <time>2021-08-25T15:45:04Z</time>
      </trkpt>
      <trkpt lat="45.88256" lon="6.38236">
        <ele>1721.7</ele>
        <time>2021-08-25T15:45:18Z</time>
      </trkpt>
      <trkpt lat="45.88252" lon="6.3823">
        <ele>1722.1</ele>
        <time>2021-08-25T15:45:24Z</time>
      </trkpt>
      <trkpt lat="45.88246" lon="6.38205">
        <ele>1721.1</ele>
        <time>2021-08-25T15:45:37Z</time>
      </trkpt>
      <trkpt lat="45.88244" lon="6.382">
        <ele>1720.4</ele>
        <time>2021-08-25T15:45:51Z</time>
      </trkpt>
      <trkpt lat="45.88243" lon="6.38197">
        <ele>1720.1</ele>
        <time>2021-08-25T15:46:07Z</time>
      </trkpt>
      <trkpt lat="45.88242" lon="6.38192">
        <ele>1719.7</ele>
        <time>2021-08-25T15:46:16Z</time>
      </trkpt>
      <trkpt lat="45.88233" lon="6.38182">
        <ele>1716.6</ele>
        <time>2021-08-25T15:46:28Z</time>
      </trkpt>
      <trkpt lat="45.88229" lon="6.38171">
        <ele>1715</ele>
        <time>2021-08-25T15:46:46Z</time>
      </trkpt>
      <trkpt lat="45.88225" lon="6.38153">
        <ele>1712.9</ele>
        <time>2021-08-25T15:47:00Z</time>
      </trkpt>
      <trkpt lat="45.88219" lon="6.38142">
        <ele>1710.2</ele>
        <time>2021-08-25T15:47:15Z</time>
      </trkpt>
      <trkpt lat="45.88218" lon="6.3814">
        <ele>1709.7</ele>
        <time>2021-08-25T15:47:24Z</time>
      </trkpt>
      <trkpt lat="45.88215" lon="6.38134">
        <ele>1708.4</ele>
        <time>2021-08-25T15:47:32Z</time>
      </trkpt>
      <trkpt lat="45.8821" lon="6.38122">
        <ele>1706</ele>
        <time>2021-08-25T15:47:47Z</time>
      </trkpt>
      <trkpt lat="45.88208" lon="6.38115">
        <ele>1705</ele>
        <time>2021-08-25T15:47:52Z</time>
      </trkpt>
      <trkpt lat="45.88207" lon="6.38112">
        <ele>1704.6</ele>
        <time>2021-08-25T15:48:07Z</time>
      </trkpt>
      <trkpt lat="45.88201" lon="6.38086">
        <ele>1701.3</ele>
        <time>2021-08-25T15:48:18Z</time>
      </trkpt>
      <trkpt lat="45.882" lon="6.38065">
        <ele>1699.2</ele>
        <time>2021-08-25T15:48:33Z</time>
      </trkpt>
      <trkpt lat="45.88201" lon="6.38043">
        <ele>1697.6</ele>
        <time>2021-08-25T15:48:35Z</time>
      </trkpt>
      <trkpt lat="45.88202" lon="6.3804">
        <ele>1697.7</ele>
        <time>2021-08-25T15:48:52Z</time>
      </trkpt>
      <trkpt lat="45.88205" lon="6.38031">
        <ele>1697.5</ele>
        <time>2021-08-25T15:48:57Z</time>
      </trkpt>
      <trkpt lat="45.88204" lon="6.38022">
        <ele>1696.3</ele>
        <time>2021-08-25T15:49:16Z</time>
      </trkpt>
      <trkpt lat="45.88203" lon="6.38008">
        <ele>1694.8</ele>
        <time>2021-08-25T15:49:22Z</time>
      </trkpt>
      <trkpt lat="45.88188" lon="6.38006">
        <ele>1691.5</ele>
        <time>2021-08-25T15:49:32Z</time>
      </trkpt>
      <trkpt lat="45.88109" lon="6.37968">
        <ele>1669.9</ele>
        <time>2021-08-25T15:49:52Z</time>
      </trkpt>
      <trkpt lat="45.88019" lon="6.37897">
        <ele>1651.2</ele>
        <time>2021-08-25T15:50:08Z</time>
      </trkpt>
      <trkpt lat="45.87968" lon="6.37803">
        <ele>1641.3</ele>
        <time>2021-08-25T15:50:13Z</time>
      </trkpt>
      <trkpt lat="45.87933" lon="6.37718">
        <ele>1636.1</ele>
        <time>2021-08-25T15:50:15Z</time>
      </trkpt>
      <trkpt lat="45.87887" lon="6.3759">
        <ele>1620.7</ele>
        <time>2021-08-25T15:50:18Z</time>
      </trkpt>
      <trkpt lat="45.87814" lon="6.37425">
        <ele>1592.3</ele>
        <time>2021-08-25T15:50:27Z</time>
      </trkpt>
      <trkpt lat="45.87775" lon="6.37371">
        <ele>1582.5</ele>
        <time>2021-08-25T15:50:31Z</time>
      </trkpt>
      <trkpt lat="45.87736" lon="6.37312">
        <ele>1576.7</ele>
        <time>2021-08-25T15:50:36Z</time>
      </trkpt>
      <trkpt lat="45.87689" lon="6.37319">
        <ele>1560.7</ele>
        <time>2021-08-25T15:50:42Z</time>
      </trkpt>
      <trkpt lat="45.87665" lon="6.37161">
        <ele>1541.9</ele>
        <time>2021-08-25T15:50:49Z</time>
      </trkpt>
      <trkpt lat="45.87673" lon="6.37103">
        <ele>1535.2</ele>
        <time>2021-08-25T15:51:08Z</time>
      </trkpt>
      <trkpt lat="45.876" lon="6.36986">
        <ele>1493.9</ele>
        <time>2021-08-25T15:51:23Z</time>
      </trkpt>
      <trkpt lat="45.87581" lon="6.36891">
        <ele>1476</ele>
        <time>2021-08-25T15:51:35Z</time>
      </trkpt>
      <trkpt lat="45.87675" lon="6.36906">
        <ele>1484</ele>
        <time>2021-08-25T15:51:55Z</time>
      </trkpt>
      <trkpt lat="45.87748" lon="6.36923">
        <ele>1492.9</ele>
        <time>2021-08-25T15:52:02Z</time>
      </trkpt>
      <trkpt lat="45.87866" lon="6.36982">
        <ele>1492.3</ele>
        <time>2021-08-25T15:52:10Z</time>
      </trkpt>
      <trkpt lat="45.88007" lon="6.3707">
        <ele>1496.9</ele>
        <time>2021-08-25T15:52:21Z</time>
      </trkpt>
      <trkpt lat="45.88048" lon="6.37042">
        <ele>1503.1</ele>
        <time>2021-08-25T15:52:36Z</time>
      </trkpt>
      <trkpt lat="45.88064" lon="6.37093">
        <ele>1521.6</ele>
        <time>2021-08-25T15:52:40Z</time>
      </trkpt>
      <trkpt lat="45.88114" lon="6.3707">
        <ele>1538</ele>
        <time>2021-08-25T15:52:56Z</time>
      </trkpt>
      <trkpt lat="45.88231" lon="6.36973">
        <ele>1551.8</ele>
        <time>2021-08-25T15:53:16Z</time>
      </trkpt>
      <trkpt lat="45.88241" lon="6.37109">
        <ele>1590.1</ele>
        <time>2021-08-25T15:53:25Z</time>
      </trkpt>
      <trkpt lat="45.88278" lon="6.37199">
        <ele>1605.2</ele>
        <time>2021-08-25T15:53:29Z</time>
      </trkpt>
      <trkpt lat="45.88336" lon="6.3733">
        <ele>1641.8</ele>
        <time>2021-08-25T15:53:38Z</time>
      </trkpt>
      <trkpt lat="45.88408" lon="6.37424">
        <ele>1663.7</ele>
        <time>2021-08-25T15:53:57Z</time>
      </trkpt>
      <trkpt lat="45.88516" lon="6.3752">
        <ele>1675.9</ele>
        <time>2021-08-25T15:54:05Z</time>
      </trkpt>
      <trkpt lat="45.88514" lon="6.37538">
        <ele>1678.5</ele>
        <time>2021-08-25T15:54:23Z</time>
      </trkpt>
      <trkpt lat="45.88513" lon="6.37543">
        <ele>1679.1</ele>
        <time>2021-08-25T15:54:40Z</time>
      </trkpt>
      <trkpt lat="45.88513" lon="6.37546">
        <ele>1679.4</ele>
        <time>2021-08-25T15:54:54Z</time>
      </trkpt>
      <trkpt lat="45.88515" lon="6.37564">
        <ele>1680.3</ele>
        <time>2021-08-25T15:55:03Z</time>
      </trkpt>
      <trkpt lat="45.88515" lon="6.37569">
        <ele>1680.8</ele>
        <time>2021-08-25T15:55:05Z</time>
      </trkpt>
      <trkpt lat="45.88518" lon="6.37586">
        <ele>1680.6</ele>
        <time>2021-08-25T15:55:21Z</time>
      </trkpt>
      <trkpt lat="45.8852" lon="6.37588">
        <ele>1679.8</ele>
        <time>2021-08-25T15:55:33Z</time>
      </trkpt>
      <trkpt lat="45.88519" lon="6.37595">
        <ele>1679.7</ele>
        <time>2021-08-25T15:55:37Z</time>
      </trkpt>
      <trkpt lat="45.88522" lon="6.37633">
        <ele>1676.8</ele>
        <time>2021-08-25T15:55:47Z</time>
      </trkpt>
      <trkpt lat="45.88523" lon="6.37642">
        <ele>1675.8</ele>
        <time>2021-08-25T15:56:05Z</time>
      </trkpt>
      <trkpt lat="45.88523" lon="6.37647">
        <ele>1675.7</ele>
        <time>2021-08-25T15:56:11Z</time>
      </trkpt>
      <trkpt lat="45.88527" lon="6.37668">
        <ele>1673</ele>
        <time>2021-08-25T15:56:21Z</time>
      </trkpt>
      <trkpt lat="45.88527" lon="6.37677">
        <ele>1672.5</ele>
        <time>2021-08-25T15:56:26Z</time>
      </trkpt>
      <trkpt lat="45.88531" lon="6.37702">
        <ele>1670.2</ele>
        <time>2021-08-25T15:56:37Z</time>
      </trkpt>
      <trkpt lat="45.88531" lon="6.37711">
        <ele>1669.5</ele>
        <time>2021-08-25T15:56:43Z</time>
      </trkpt>
      <trkpt lat="45.88531" lon="6.3772">
        <ele>1669.3</ele>
        <time>2021-08-25T15:56:48Z</time>
      </trkpt>
      <trkpt lat="45.88523" lon="6.37735">
        <ele>1672.5</ele>
        <time>2021-08-25T15:57:06Z</time>
      </trkpt>
      <trkpt lat="45.88517" lon="6.37754">
        <ele>1675.2</ele>
        <time>2021-08-25T15:57:20Z</time>
      </trkpt>
      <trkpt lat="45.88515" lon="6.3776">
        <ele>1676.3</ele>
        <time>2021-08-25T15:57:22Z</time>
      </trkpt>
      <trkpt lat="45.88514" lon="6.37761">
        <ele>1676.6</ele>
        <time>2021-08-25T15:57:25Z</time>
      </trkpt>
      <trkpt lat="45.88511" lon="6.37765">
        <ele>1678.5</ele>
        <time>2021-08-25T15:57:30Z</time>
      </trkpt>
      <trkpt lat="45.88511" lon="6.37767">
        <ele>1678.8</ele>
        <time>2021-08-25T15:57:38Z</time>
      </trkpt>
      <trkpt lat="45.88504" lon="6.37789">
        <ele>1683.4</ele>
        <time>2021-08-25T15:57:55Z</time>
      </trkpt>
      <trkpt lat="45.88503" lon="6.37798">
        <ele>1684.4</ele>
        <time>2021-08-25T15:58:09Z</time>
      </trkpt>
      <trkpt lat="45.885" lon="6.3782">
        <ele>1687.1</ele>
        <time>2021-08-25T15:58:18Z</time>
      </trkpt>
      <trkpt lat="45.88495" lon="6.37836">
        <ele>1687</ele>
        <time>2021-08-25T15:58:37Z</time>
      </trkpt>
      <trkpt lat="45.8849" lon="6.37858">
        <ele>1685.8</ele>
        <time>2021-08-25T15:58:45Z</time>
      </trkpt>
      <trkpt lat="45.8849" lon="6.37862">
        <ele>1685.8</ele>
        <time>2021-08-25T15:58:49Z</time>
      </trkpt>
      <trkpt lat="45.88494" lon="6.37877">
        <ele>1685.9</ele>
        <time>2021-08-25T15:58:54Z</time>
      </trkpt>
      <trkpt lat="45.88497" lon="6.37884">
        <ele>1686</ele>
        <time>2021-08-25T15:59:05Z</time>
      </trkpt>
      <trkpt lat="45.88501" lon="6.37897">
        <ele>1685.2</ele>
        <time>2021-08-25T15:59:07Z</time>
      </trkpt>
      <trkpt lat="45.88502" lon="6.379">
        <ele>1684.3</ele>
        <time>2021-08-25T15:59:15Z</time>
      </trkpt>
      <trkpt lat="45.88508" lon="6.37913">
        <ele>1680.8</ele>
        <time>2021-08-25T15:59:18Z</time>
      </trkpt>
      <trkpt lat="45.88509" lon="6.37917">
        <ele>1679.8</ele>
        <time>2021-08-25T15:59:20Z</time>
      </trkpt>
      <trkpt lat="45.8852" lon="6.37927">
        <ele>1672.8</ele>
        <time>2021-08-25T15:59:28Z</time>
      </trkpt>
      <trkpt lat="45.88527" lon="6.37941">
        <ele>1667.2</ele>
        <time>2021-08-25T15:59:42Z</time>
      </trkpt>
      <trkpt lat="45.88528" lon="6.37942">
        <ele>1666.8</ele>
        <time>2021-08-25T15:59:56Z</time>
      </trkpt>
      <trkpt lat="45.88528" lon="6.3795">
        <ele>1666</ele>
        <time>2021-08-25T16:00:01Z</time>
      </trkpt>
      <trkpt lat="45.88525" lon="6.37968">
        <ele>1665.9</ele>
        <time>2021-08-25T16:00:09Z</time>
      </trkpt>
      <trkpt lat="45.88525" lon="6.3797">
        <ele>1665.8</ele>
        <time>2021-08-25T16:00:26Z</time>
      </trkpt>
      <trkpt lat="45.88526" lon="6.37984">
        <ele>1664.4</ele>
        <time>2021-08-25T16:00:30Z</time>
      </trkpt>
      <trkpt lat="45.88525" lon="6.37987">
        <ele>1664.6</ele>
        <time>2021-08-25T16:00:44Z</time>
      </trkpt>
      <trkpt lat="45.88524" lon="6.37989">
        <ele>1664.7</ele>
        <time>2021-08-25T16:01:02Z</time>
      </trkpt>
      <trkpt lat="45.88523" lon="6.37991">
        <ele>1665.1</ele>
        <time>2021-08-25T16:01:14Z</time>
      </trkpt>
      <trkpt lat="45.88522" lon="6.3801">
        <ele>1663.3</ele>
        <time>2021-08-25T16:01:30Z</time>
      </trkpt>
      <trkpt lat="45.88522" lon="6.38012">
        <ele>1663</ele>
        <time>2021-08-25T16:01:33Z</time>
      </trkpt>
      <trkpt lat="45.88521" lon="6.38014">
        <ele>1662.9</ele>
        <time>2021-08-25T16:01:52Z</time>
      </trkpt>
      <trkpt lat="45.88521" lon="6.38018">
        <ele>1662.4</ele>
        <time>2021-08-25T16:02:09Z</time>
      </trkpt>
      <trkpt lat="45.88519" lon="6.38021">
        <ele>1662.5</ele>
        <time>2021-08-25T16:02:16Z</time>
      </trkpt>
      <trkpt lat="45.88519" lon="6.38022">
        <ele>1662.7</ele>
        <time>2021-08-25T16:02:31Z</time>
      </trkpt>
      <trkpt lat="45.88519" lon="6.38033">
        <ele>1660.8</ele>
        <time>2021-08-25T16:02:33Z</time>
      </trkpt>
      <trkpt lat="45.88519" lon="6.38034">
        <ele>1660.6</ele>
        <time>2021-08-25T16:02:52Z</time>
      </trkpt>
      <trkpt lat="45.88517" lon="6.38037">
        <ele>1660.9</ele>
        <time>2021-08-25T16:03:06Z</time>
      </trkpt>
      <trkpt lat="45.88517" lon="6.38037">
        <ele>1660.9</ele>
        <time>2021-08-25T16:03:23Z</time>
      </trkpt>
      <trkpt lat="45.88516" lon="6.38037">
        <ele>1661.1</ele>
        <time>2021-08-25T16:03:29Z</time>
      </trkpt>
      <trkpt lat="45.88517" lon="6.38037">
        <ele>1661</ele>
        <time>2021-08-25T16:03:44Z</time>
      </trkpt>
      <trkpt lat="45.88517" lon="6.38037">
        <ele>1660.9</ele>
        <time>2021-08-25T16:03:48Z</time>
      </trkpt>
      <trkpt lat="45.88517" lon="6.38038">
        <ele>1660.4</ele>
        <time>2021-08-25T16:04:00Z</time>
      </trkpt>
      <trkpt lat="45.88515" lon="6.38058">
        <ele>1657.6</ele>
        <time>2021-08-25T16:04:15Z</time>
      </trkpt>
      <trkpt lat="45.88515" lon="6.38062">
        <ele>1656.8</ele>
        <time>2021-08-25T16:04:24Z</time>
      </trkpt>
      <trkpt lat="45.88516" lon="6.38066">
        <ele>1655.8</ele>
        <time>2021-08-25T16:04:39Z</time>
      </trkpt>
      <trkpt lat="45.88521" lon="6.38073">
        <ele>1652.9</ele>
        <time>2021-08-25T16:04:43Z</time>
      </trkpt>
      <trkpt lat="45.88524" lon="6.3808">
        <ele>1650.6</ele>
        <time>2021-08-25T16:04:55Z</time>
      </trkpt>
      <trkpt lat="45.88531" lon="6.38091">
        <ele>1646.8</ele>
        <time>2021-08-25T16:04:58Z</time>
      </trkpt>
      <trkpt lat="45.88537" lon="6.38102">
        <ele>1643.9</ele>
        <time>2021-08-25T16:05:07Z</time>
      </trkpt>
      <trkpt lat="45.88539" lon="6.38108">
        <ele>1642.6</ele>
        <time>2021-08-25T16:05:22Z</time>
      </trkpt>
      <trkpt lat="45.88543" lon="6.38119">
        <ele>1640.6</ele>
        <time>2021-08-25T16:05:27Z</time>
      </trkpt>
      <trkpt lat="45.88551" lon="6.3813">
        <ele>1637.9</ele>
        <time>2021-08-25T16:05:29Z</time>
      </trkpt>
      <trkpt lat="45.88551" lon="6.38131">
        <ele>1637.7</ele>
        <time>2021-08-25T16:05:49Z</time>
      </trkpt>
      <trkpt lat="45.88556" lon="6.3814">
        <ele>1636.1</ele>
        <time>2021-08-25T16:06:01Z</time>
      </trkpt>
      <trkpt lat="45.88556" lon="6.38142">
        <ele>1635.9</ele>
        <time>2021-08-25T16:06:03Z</time>
      </trkpt>
      <trkpt lat="45.88558" lon="6.38151">
        <ele>1635.1</ele>
        <time>2021-08-25T16:06:19Z</time>
      </trkpt>
      <trkpt lat="45.88558" lon="6.3816">
        <ele>1634.6</ele>
        <time>2021-08-25T16:06:28Z</time>
      </trkpt>
      <trkpt lat="45.88558" lon="6.38166">
        <ele>1634.4</ele>
        <time>2021-08-25T16:06:48Z</time>
      </trkpt>
      <trkpt lat="45.88559" lon="6.38179">
        <ele>1634.4</ele>
        <time>2021-08-25T16:07:05Z</time>
      </trkpt>
      <trkpt lat="45.88563" lon="6.38193">
        <ele>1634.1</ele>
        <time>2021-08-25T16:07:22Z</time>
      </trkpt>
      <trkpt lat="45.88568" lon="6.38212">
        <ele>1634</ele>
        <time>2021-08-25T16:07:27Z</time>
      </trkpt>
      <trkpt lat="45.88568" lon="6.38216">
        <ele>1634</ele>
        <time>2021-08-25T16:07:36Z</time>
      </trkpt>
      <trkpt lat="45.88569" lon="6.3822">
        <ele>1634.1</ele>
        <time>2021-08-25T16:07:51Z</time>
      </trkpt>
      <trkpt lat="45.88573" lon="6.38233">
        <ele>1634.1</ele>
        <time>2021-08-25T16:08:02Z</time>
      </trkpt>
      <trkpt lat="45.88576" lon="6.38242">
        <ele>1634.2</ele>
        <time>2021-08-25T16:08:11Z</time>
      </trkpt>
      <trkpt lat="45.88576" lon="6.38249">
        <ele>1634.5</ele>
        <time>2021-08-25T16:08:19Z</time>
      </trkpt>
      <trkpt lat="45.88577" lon="6.38257">
        <ele>1634.5</ele>
        <time>2021-08-25T16:08:30Z</time>
      </trkpt>
      <trkpt lat="45.88577" lon="6.38263">
        <ele>1634.5</ele>
        <time>2021-08-25T16:08:43Z</time>
      </trkpt>
      <trkpt lat="45.88579" lon="6.38275">
        <ele>1634.5</ele>
        <time>2021-08-25T16:09:02Z</time>
      </trkpt>
      <trkpt lat="45.8858" lon="6.38278">
        <ele>1634.5</ele>
        <time>2021-08-25T16:09:22Z</time>
      </trkpt>
      <trkpt lat="45.8858" lon="6.38284">
        <ele>1634.6</ele>
        <time>2021-08-25T16:09:31Z</time>
      </trkpt>
      <trkpt lat="45.88582" lon="6.38307">
        <ele>1634.7</ele>
        <time>2021-08-25T16:09:34Z</time>
      </trkpt>
      <trkpt lat="45.88582" lon="6.38312">
        <ele>1634.8</ele>
        <time>2021-08-25T16:09:45Z</time>
      </trkpt>
      <trkpt lat="45.88582" lon="6.38335">
        <ele>1634.9</ele>
        <time>2021-08-25T16:09:55Z</time>
      </trkpt>
      <trkpt lat="45.88585" lon="6.3836">
        <ele>1632.9</ele>
        <time>2021-08-25T16:10:03Z</time>
      </trkpt>
      <trkpt lat="45.88585" lon="6.38366">
        <ele>1632.5</ele>
        <time>2021-08-25T16:10:12Z</time>
      </trkpt>
      <trkpt lat="45.88584" lon="6.3838">
        <ele>1632.1</ele>
        <time>2021-08-25T16:10:19Z</time>
      </trkpt>
      <trkpt lat="45.8859" lon="6.38405">
        <ele>1629.3</ele>
        <time>2021-08-25T16:10:24Z</time>
      </trkpt>
      <trkpt lat="45.88591" lon="6.38406">
        <ele>1629.1</ele>
        <time>2021-08-25T16:10:38Z</time>
      </trkpt>
      <trkpt lat="45.88593" lon="6.38411">
        <ele>1628.4</ele>
        <time>2021-08-25T16:10:50Z</time>
      </trkpt>
      <trkpt lat="45.88594" lon="6.38413">
        <ele>1628</ele>
        <time>2021-08-25T16:11:02Z</time>
      </trkpt>
      <trkpt lat="45.886" lon="6.38435">
        <ele>1626</ele>
        <time>2021-08-25T16:11:09Z</time>
      </trkpt>
      <trkpt lat="45.88614" lon="6.38456">
        <ele>1623.3</ele>
        <time>2021-08-25T16:11:13Z</time>
      </trkpt>
      <trkpt lat="45.88621" lon="6.38469">
        <ele>1622.2</ele>
        <time>2021-08-25T16:11:25Z</time>
      </trkpt>
      <trkpt lat="45.88623" lon="6.38481">
        <ele>1621.8</ele>
        <time>2021-08-25T16:11:32Z</time>
      </trkpt>
      <trkpt lat="45.88624" lon="6.38491">
        <ele>1621.7</ele>
        <time>2021-08-25T16:11:40Z</time>
      </trkpt>
      <trkpt lat="45.88624" lon="6.385">
        <ele>1621.5</ele>
        <time>2021-08-25T16:11:59Z</time>
      </trkpt>
      <trkpt lat="45.88624" lon="6.38508">
        <ele>1621</ele>
        <time>2021-08-25T16:12:17Z</time>
      </trkpt>
      <trkpt lat="45.88625" lon="6.38514">
        <ele>1620.5</ele>
        <time>2021-08-25T16:12:28Z</time>
      </trkpt>
      <trkpt lat="45.88627" lon="6.38521">
        <ele>1619.9</ele>
        <time>2021-08-25T16:12:44Z</time>
      </trkpt>
      <trkpt lat="45.88631" lon="6.38544">
        <ele>1618.2</ele>
        <time>2021-08-25T16:13:04Z</time>
      </trkpt>
      <trkpt lat="45.88636" lon="6.38564">
        <ele>1616.8</ele>
        <time>2021-08-25T16:13:07Z</time>
      </trkpt>
      <trkpt lat="45.88638" lon="6.3857">
        <ele>1616.5</ele>
        <time>2021-08-25T16:13:09Z</time>
      </trkpt>
      <trkpt lat="45.88643" lon="6.38578">
        <ele>1616</ele>
        <time>2021-08-25T16:13:25Z</time>
      </trkpt>
      <trkpt lat="45.88648" lon="6.38587">
        <ele>1615.3</ele>
        <time>2021-08-25T16:13:44Z</time>
      </trkpt>
      <trkpt lat="45.88654" lon="6.38601">
        <ele>1613.6</ele>
        <time>2021-08-25T16:13:53Z</time>
      </trkpt>
      <trkpt lat="45.88663" lon="6.3862">
        <ele>1611.2</ele>
        <time>2021-08-25T16:14:05Z</time>
      </trkpt>
      <trkpt lat="45.88668" lon="6.38631">
        <ele>1609.5</ele>
        <time>2021-08-25T16:14:07Z</time>
      </trkpt>
      <trkpt lat="45.88674" lon="6.38647">
        <ele>1606.3</ele>
        <time>2021-08-25T16:14:23Z</time>
      </trkpt>
      <trkpt lat="45.88677" lon="6.38668">
        <ele>1603.7</ele>
        <time>2021-08-25T16:14:32Z</time>
      </trkpt>
      <trkpt lat="45.88676" lon="6.38671">
        <ele>1603.6</ele>
        <time>2021-08-25T16:14:37Z</time>
      </trkpt>
      <trkpt lat="45.88674" lon="6.38674">
        <ele>1603.6</ele>
        <time>2021-08-25T16:14:51Z</time>
      </trkpt>
      <trkpt lat="45.88673" lon="6.38675">
        <ele>1603.6</ele>
        <time>2021-08-25T16:15:02Z</time>
      </trkpt>
      <trkpt lat="45.88668" lon="6.38677">
        <ele>1604</ele>
        <time>2021-08-25T16:15:13Z</time>
      </trkpt>
      <trkpt lat="45.88666" lon="6.38677">
        <ele>1604.3</ele>
        <time>2021-08-25T16:15:28Z</time>
      </trkpt>
      <trkpt lat="45.88663" lon="6.38678">
        <ele>1604.3</ele>
        <time>2021-08-25T16:15:30Z</time>
      </trkpt>
      <trkpt lat="45.8866" lon="6.38678">
        <ele>1604.4</ele>
        <time>2021-08-25T16:15:34Z</time>
      </trkpt>
      <trkpt lat="45.88654" lon="6.38683">
        <ele>1604.2</ele>
        <time>2021-08-25T16:15:53Z</time>
      </trkpt>
      <trkpt lat="45.88648" lon="6.38699">
        <ele>1603.4</ele>
        <time>2021-08-25T16:15:59Z</time>
      </trkpt>
      <trkpt lat="45.88649" lon="6.38722">
        <ele>1601.9</ele>
        <time>2021-08-25T16:16:06Z</time>
      </trkpt>
      <trkpt lat="45.88654" lon="6.38743">
        <ele>1600.2</ele>
        <time>2021-08-25T16:16:11Z</time>
      </trkpt>
      <trkpt lat="45.88655" lon="6.38745">
        <ele>1600.1</ele>
        <time>2021-08-25T16:16:19Z</time>
      </trkpt>
      <trkpt lat="45.88662" lon="6.38764">
        <ele>1599</ele>
        <time>2021-08-25T16:16:24Z</time>
      </trkpt>
      <trkpt lat="45.88663" lon="6.38769">
        <ele>1598.8</ele>
        <time>2021-08-25T16:16:28Z</time>
      </trkpt>
      <trkpt lat="45.88665" lon="6.38774">
        <ele>1598.6</ele>
        <time>2021-08-25T16:16:32Z</time>
      </trkpt>
      <trkpt lat="45.88678" lon="6.3879">
        <ele>1597.2</ele>
        <time>2021-08-25T16:16:46Z</time>
      </trkpt>
      <trkpt lat="45.8868" lon="6.38794">
        <ele>1596.9</ele>
        <time>2021-08-25T16:16:52Z</time>
      </trkpt>
      <trkpt lat="45.88682" lon="6.38803">
        <ele>1596.5</ele>
        <time>2021-08-25T16:16:58Z</time>
      </trkpt>
      <trkpt lat="45.88687" lon="6.38807">
        <ele>1596.1</ele>
        <time>2021-08-25T16:17:16Z</time>
      </trkpt>
      <trkpt lat="45.88693" lon="6.38834">
        <ele>1595.1</ele>
        <time>2021-08-25T16:17:19Z</time>
      </trkpt>
      <trkpt lat="45.88693" lon="6.38837">
        <ele>1595.2</ele>
        <time>2021-08-25T16:17:27Z</time>
      </trkpt>
      <trkpt lat="45.88694" lon="6.38842">
        <ele>1595.2</ele>
        <time>2021-08-25T16:17:31Z</time>
      </trkpt>
      <trkpt lat="45.88697" lon="6.38849">
        <ele>1595.1</ele>
        <time>2021-08-25T16:17:40Z</time>
      </trkpt>
      <trkpt lat="45.88708" lon="6.38874">
        <ele>1594.8</ele>
        <time>2021-08-25T16:17:59Z</time>
      </trkpt>
      <trkpt lat="45.88715" lon="6.38889">
        <ele>1594.5</ele>
        <time>2021-08-25T16:18:01Z</time>
      </trkpt>
      <trkpt lat="45.88716" lon="6.38896">
        <ele>1594.5</ele>
        <time>2021-08-25T16:18:16Z</time>
      </trkpt>
      <trkpt lat="45.88722" lon="6.389">
        <ele>1594.1</ele>
        <time>2021-08-25T16:18:34Z</time>
      </trkpt>
      <trkpt lat="45.88725" lon="6.38903">
        <ele>1593.9</ele>
        <time>2021-08-25T16:18:41Z</time>
      </trkpt>
      <trkpt lat="45.88744" lon="6.38909">
        <ele>1592.4</ele>
        <time>2021-08-25T16:18:47Z</time>
      </trkpt>
      <trkpt lat="45.88753" lon="6.38912">
        <ele>1591.5</ele>
        <time>2021-08-25T16:18:51Z</time>
      </trkpt>
      <trkpt lat="45.88758" lon="6.38913">
        <ele>1590.7</ele>
        <time>2021-08-25T16:19:08Z</time>
      </trkpt>
      <trkpt lat="45.88765" lon="6.38924">
        <ele>1590.4</ele>
        <time>2021-08-25T16:19:21Z</time>
      </trkpt>
      <trkpt lat="45.88766" lon="6.38925">
        <ele>1590.4</ele>
        <time>2021-08-25T16:19:29Z</time>
      </trkpt>
      <trkpt lat="45.88771" lon="6.38929">
        <ele>1589.9</ele>
        <time>2021-08-25T16:19:49Z</time>
      </trkpt>
      <trkpt lat="45.88776" lon="6.38933">
        <ele>1589.7</ele>
        <time>2021-08-25T16:20:06Z</time>
      </trkpt>
      <trkpt lat="45.88781" lon="6.38939">
        <ele>1589.6</ele>
        <time>2021-08-25T16:20:24Z</time>
      </trkpt>
      <trkpt lat="45.88784" lon="6.38941">
        <ele>1589.5</ele>
        <time>2021-08-25T16:20:41Z</time>
      </trkpt>
      <trkpt lat="45.88789" lon="6.38948">
        <ele>1589.7</ele>
        <time>2021-08-25T16:20:57Z</time>
      </trkpt>
      <trkpt lat="45.88794" lon="6.38956">
        <ele>1590</ele>
        <time>2021-08-25T16:21:12Z</time>
      </trkpt>
      <trkpt lat="45.888" lon="6.38962">
        <ele>1590</ele>
        <time>2021-08-25T16:21:17Z</time>
      </trkpt>
      <trkpt lat="45.88804" lon="6.38966">
        <ele>1590.1</ele>
        <time>2021-08-25T16:21:19Z</time>
      </trkpt>
      <trkpt lat="45.88814" lon="6.3897">
        <ele>1589.4</ele>
        <time>2021-08-25T16:21:35Z</time>
      </trkpt>
      <trkpt lat="45.88816" lon="6.38972">
        <ele>1589.5</ele>
        <time>2021-08-25T16:21:44Z</time>
      </trkpt>
      <trkpt lat="45.88826" lon="6.38984">
        <ele>1590.3</ele>
        <time>2021-08-25T16:21:49Z</time>
      </trkpt>
      <trkpt lat="45.88829" lon="6.38988">
        <ele>1590.5</ele>
        <time>2021-08-25T16:22:01Z</time>
      </trkpt>
      <trkpt lat="45.88834" lon="6.3899">
        <ele>1590.5</ele>
        <time>2021-08-25T16:22:14Z</time>
      </trkpt>
      <trkpt lat="45.88845" lon="6.39002">
        <ele>1591.8</ele>
        <time>2021-08-25T16:22:17Z</time>
      </trkpt>
      <trkpt lat="45.88845" lon="6.39002">
        <ele>1591.9</ele>
        <time>2021-08-25T16:22:25Z</time>
      </trkpt>
      <trkpt lat="45.88848" lon="6.39003">
        <ele>1591.9</ele>
        <time>2021-08-25T16:22:29Z</time>
      </trkpt>
      <trkpt lat="45.88856" lon="6.39008">
        <ele>1592</ele>
        <time>2021-08-25T16:22:37Z</time>
      </trkpt>
      <trkpt lat="45.8886" lon="6.3901">
        <ele>1592</ele>
        <time>2021-08-25T16:22:45Z</time>
      </trkpt>
      <trkpt lat="45.8887" lon="6.39016">
        <ele>1592.1</ele>
        <time>2021-08-25T16:23:05Z</time>
      </trkpt>
      <trkpt lat="45.8888" lon="6.39016">
        <ele>1591.8</ele>
        <time>2021-08-25T16:23:18Z</time>
      </trkpt>
      <trkpt lat="45.88893" lon="6.39017">
        <ele>1591.5</ele>
        <time>2021-08-25T16:23:26Z</time>
      </trkpt>
      <trkpt lat="45.88912" lon="6.39011">
        <ele>1590.7</ele>
        <time>2021-08-25T16:23:36Z</time>
      </trkpt>
      <trkpt lat="45.88914" lon="6.39011">
        <ele>1590.6</ele>
        <time>2021-08-25T16:23:53Z</time>
      </trkpt>
      <trkpt lat="45.88924" lon="6.38996">
        <ele>1590</ele>
        <time>2021-08-25T16:24:10Z</time>
      </trkpt>
      <trkpt lat="45.88933" lon="6.38979">
        <ele>1589.1</ele>
        <time>2021-08-25T16:24:22Z</time>
      </trkpt>
      <trkpt lat="45.88941" lon="6.38957">
        <ele>1587.7</ele>
        <time>2021-08-25T16:24:31Z</time>
      </trkpt>
      <trkpt lat="45.88942" lon="6.38951">
        <ele>1587.4</ele>
        <time>2021-08-25T16:24:33Z</time>
      </trkpt>
      <trkpt lat="45.8895" lon="6.38927">
        <ele>1585.9</ele>
        <time>2021-08-25T16:24:50Z</time>
      </trkpt>
      <trkpt lat="45.8895" lon="6.38906">
        <ele>1583.9</ele>
        <time>2021-08-25T16:24:56Z</time>
      </trkpt>
      <trkpt lat="45.88952" lon="6.3888">
        <ele>1580.7</ele>
        <time>2021-08-25T16:25:08Z</time>
      </trkpt>
      <trkpt lat="45.88957" lon="6.38867">
        <ele>1579.4</ele>
        <time>2021-08-25T16:25:28Z</time>
      </trkpt>
      <trkpt lat="45.88967" lon="6.38854">
        <ele>1578.5</ele>
        <time>2021-08-25T16:25:48Z</time>
      </trkpt>
      <trkpt lat="45.88979" lon="6.38836">
        <ele>1577.5</ele>
        <time>2021-08-25T16:25:53Z</time>
      </trkpt>
      <trkpt lat="45.88985" lon="6.38831">
        <ele>1577.6</ele>
        <time>2021-08-25T16:26:07Z</time>
      </trkpt>
      <trkpt lat="45.89" lon="6.38819">
        <ele>1578.5</ele>
        <time>2021-08-25T16:26:25Z</time>
      </trkpt>
      <trkpt lat="45.89006" lon="6.38812">
        <ele>1577.7</ele>
        <time>2021-08-25T16:26:32Z</time>
      </trkpt>
      <trkpt lat="45.8901" lon="6.38811">
        <ele>1577.2</ele>
        <time>2021-08-25T16:26:52Z</time>
      </trkpt>
      <trkpt lat="45.89013" lon="6.38814">
        <ele>1577.1</ele>
        <time>2021-08-25T16:27:06Z</time>
      </trkpt>
      <trkpt lat="45.89013" lon="6.3882">
        <ele>1577.4</ele>
        <time>2021-08-25T16:27:13Z</time>
      </trkpt>
      <trkpt lat="45.8902" lon="6.38835">
        <ele>1578</ele>
        <time>2021-08-25T16:27:28Z</time>
      </trkpt>
      <trkpt lat="45.89022" lon="6.38836">
        <ele>1578</ele>
        <time>2021-08-25T16:27:40Z</time>
      </trkpt>
      <trkpt lat="45.89031" lon="6.38839">
        <ele>1577.9</ele>
        <time>2021-08-25T16:27:57Z</time>
      </trkpt>
      <trkpt lat="45.89032" lon="6.3884">
        <ele>1578</ele>
        <time>2021-08-25T16:28:08Z</time>
      </trkpt>
      <trkpt lat="45.89034" lon="6.38842">
        <ele>1578.2</ele>
        <time>2021-08-25T16:28:16Z</time>
      </trkpt>
      <trkpt lat="45.89039" lon="6.38851">
        <ele>1579.2</ele>
        <time>2021-08-25T16:28:26Z</time>
      </trkpt>
      <trkpt lat="45.89041" lon="6.38857">
        <ele>1580</ele>
        <time>2021-08-25T16:28:45Z</time>
      </trkpt>
      <trkpt lat="45.89044" lon="6.38871">
        <ele>1582.2</ele>
        <time>2021-08-25T16:28:58Z</time>
      </trkpt>
      <trkpt lat="45.89048" lon="6.3889">
        <ele>1585</ele>
        <time>2021-08-25T16:29:02Z</time>
      </trkpt>
      <trkpt lat="45.8905" lon="6.38896">
        <ele>1586.1</ele>
        <time>2021-08-25T16:29:15Z</time>
      </trkpt>
      <trkpt lat="45.89053" lon="6.38912">
        <ele>1588.8</ele>
        <time>2021-08-25T16:29:30Z</time>
      </trkpt>
      <trkpt lat="45.8905" lon="6.3893">
        <ele>1590.5</ele>
        <time>2021-08-25T16:29:35Z</time>
      </trkpt>
      <trkpt lat="45.89049" lon="6.38947">
        <ele>1591.9</ele>
        <time>2021-08-25T16:29:52Z</time>
      </trkpt>
      <trkpt lat="45.89046" lon="6.38964">
        <ele>1593.2</ele>
        <time>2021-08-25T16:30:08Z</time>
      </trkpt>
      <trkpt lat="45.89047" lon="6.38979">
        <ele>1594.6</ele>
        <time>2021-08-25T16:30:16Z</time>
      </trkpt>
      <trkpt lat="45.89052" lon="6.38998">
        <ele>1596.6</ele>
        <time>2021-08-25T16:30:34Z</time>
      </trkpt>
      <trkpt lat="45.89056" lon="6.39008">
        <ele>1597.3</ele>
        <time>2021-08-25T16:30:43Z</time>
      </trkpt>
      <trkpt lat="45.89065" lon="6.39026">
        <ele>1598.8</ele>
        <time>2021-08-25T16:30:59Z</time>
      </trkpt>
      <trkpt lat="45.89068" lon="6.39031">
        <ele>1599.2</ele>
        <time>2021-08-25T16:31:16Z</time>
      </trkpt>
      <trkpt lat="45.8907" lon="6.39048">
        <ele>1600.2</ele>
        <time>2021-08-25T16:31:22Z</time>
      </trkpt>
      <trkpt lat="45.8907" lon="6.39048">
        <ele>1600.2</ele>
        <time>2021-08-25T16:31:35Z</time>
      </trkpt>
      <trkpt lat="45.89075" lon="6.39058">
        <ele>1601</ele>
        <time>2021-08-25T16:31:46Z</time>
      </trkpt>
      <trkpt lat="45.89078" lon="6.39062">
        <ele>1601.5</ele>
        <time>2021-08-25T16:31:55Z</time>
      </trkpt>
      <trkpt lat="45.89091" lon="6.39074">
        <ele>1603</ele>
        <time>2021-08-25T16:32:11Z</time>
      </trkpt>
      <trkpt lat="45.89093" lon="6.39076">
        <ele>1603.2</ele>
        <time>2021-08-25T16:32:20Z</time>
      </trkpt>
      <trkpt lat="45.89096" lon="6.39078">
        <ele>1603.5</ele>
        <time>2021-08-25T16:32:28Z</time>
      </trkpt>
      <trkpt lat="45.89099" lon="6.39082">
        <ele>1603.9</ele>
        <time>2021-08-25T16:32:45Z</time>
      </trkpt>
      <trkpt lat="45.89101" lon="6.39084">
        <ele>1604.1</ele>
        <time>2021-08-25T16:32:59Z</time>
      </trkpt>
      <trkpt lat="45.89103" lon="6.39088">
        <ele>1604.3</ele>
        <time>2021-08-25T16:33:16Z</time>
      </trkpt>
      <trkpt lat="45.89107" lon="6.39096">
        <ele>1604.9</ele>
        <time>2021-08-25T16:33:21Z</time>
      </trkpt>
      <trkpt lat="45.8911" lon="6.39113">
        <ele>1605.8</ele>
        <time>2021-08-25T16:33:24Z</time>
      </trkpt>
      <trkpt lat="45.89113" lon="6.3912">
        <ele>1606.3</ele>
        <time>2021-08-25T16:33:37Z</time>
      </trkpt>
      <trkpt lat="45.89119" lon="6.39131">
        <ele>1607.3</ele>
        <time>2021-08-25T16:33:47Z</time>
      </trkpt>
      <trkpt lat="45.89125" lon="6.39139">
        <ele>1608.2</ele>
        <time>2021-08-25T16:34:05Z</time>
      </trkpt>
      <trkpt lat="45.89126" lon="6.39141">
        <ele>1608.4</ele>
        <time>2021-08-25T16:34:23Z</time>
      </trkpt>
      <trkpt lat="45.89134" lon="6.39154">
        <ele>1609.8</ele>
        <time>2021-08-25T16:34:38Z</time>
      </trkpt>
      <trkpt lat="45.89134" lon="6.39155">
        <ele>1609.9</ele>
        <time>2021-08-25T16:34:43Z</time>
      </trkpt>
      <trkpt lat="45.8914" lon="6.39163">
        <ele>1610.9</ele>
        <time>2021-08-25T16:34:53Z</time>
      </trkpt>
      <trkpt lat="45.89146" lon="6.39172">
        <ele>1611.9</ele>
        <time>2021-08-25T16:35:11Z</time>
      </trkpt>
      <trkpt lat="45.89153" lon="6.39188">
        <ele>1613.3</ele>
        <time>2021-08-25T16:35:16Z</time>
      </trkpt>
      <trkpt lat="45.89156" lon="6.39198">
        <ele>1614.1</ele>
        <time>2021-08-25T16:35:20Z</time>
      </trkpt>
      <trkpt lat="45.89159" lon="6.39212">
        <ele>1615.2</ele>
        <time>2021-08-25T16:35:29Z</time>
      </trkpt>
      <trkpt lat="45.8916" lon="6.39228">
        <ele>1616.3</ele>
        <time>2021-08-25T16:35:34Z</time>
      </trkpt>
      <trkpt lat="45.89162" lon="6.39236">
        <ele>1617.1</ele>
        <time>2021-08-25T16:35:46Z</time>
      </trkpt>
      <trkpt lat="45.89163" lon="6.39245">
        <ele>1617.9</ele>
        <time>2021-08-25T16:35:54Z</time>
      </trkpt>
      <trkpt lat="45.89166" lon="6.39265">
        <ele>1619</ele>
        <time>2021-08-25T16:35:57Z</time>
      </trkpt>
      <trkpt lat="45.89169" lon="6.39282">
        <ele>1619.5</ele>
        <time>2021-08-25T16:36:08Z</time>
      </trkpt>
      <trkpt lat="45.89171" lon="6.39297">
        <ele>1619.9</ele>
        <time>2021-08-25T16:36:27Z</time>
      </trkpt>
      <trkpt lat="45.89176" lon="6.39317">
        <ele>1620.6</ele>
        <time>2021-08-25T16:36:36Z</time>
      </trkpt>
      <trkpt lat="45.8918" lon="6.39333">
        <ele>1621.3</ele>
        <time>2021-08-25T16:36:49Z</time>
      </trkpt>
      <trkpt lat="45.89181" lon="6.39335">
        <ele>1621.4</ele>
        <time>2021-08-25T16:36:59Z</time>
      </trkpt>
      <trkpt lat="45.89182" lon="6.39347">
        <ele>1621.5</ele>
        <time>2021-08-25T16:37:08Z</time>
      </trkpt>
      <trkpt lat="45.89182" lon="6.39351">
        <ele>1621.6</ele>
        <time>2021-08-25T16:37:20Z</time>
      </trkpt>
      <trkpt lat="45.89182" lon="6.39361">
        <ele>1621.6</ele>
        <time>2021-08-25T16:37:24Z</time>
      </trkpt>
      <trkpt lat="45.89182" lon="6.3938">
        <ele>1621.7</ele>
        <time>2021-08-25T16:37:30Z</time>
      </trkpt>
      <trkpt lat="45.89179" lon="6.39398">
        <ele>1621.5</ele>
        <time>2021-08-25T16:37:42Z</time>
      </trkpt>
      <trkpt lat="45.89177" lon="6.39419">
        <ele>1621.2</ele>
        <time>2021-08-25T16:37:50Z</time>
      </trkpt>
      <trkpt lat="45.89181" lon="6.39444">
        <ele>1620.4</ele>
        <time>2021-08-25T16:38:01Z</time>
      </trkpt>
      <trkpt lat="45.89185" lon="6.39469">
        <ele>1619.6</ele>
        <time>2021-08-25T16:38:04Z</time>
      </trkpt>
      <trkpt lat="45.89186" lon="6.39477">
        <ele>1619.4</ele>
        <time>2021-08-25T16:38:10Z</time>
      </trkpt>
      <trkpt lat="45.89191" lon="6.39507">
        <ele>1618.3</ele>
        <time>2021-08-25T16:38:15Z</time>
      </trkpt>
      <trkpt lat="45.89201" lon="6.39529">
        <ele>1617.1</ele>
        <time>2021-08-25T16:38:31Z</time>
      </trkpt>
      <trkpt lat="45.89202" lon="6.3953">
        <ele>1617</ele>
        <time>2021-08-25T16:38:47Z</time>
      </trkpt>
      <trkpt lat="45.89207" lon="6.39542">
        <ele>1616.3</ele>
        <time>2021-08-25T16:39:07Z</time>
      </trkpt>
      <trkpt lat="45.89207" lon="6.39543">
        <ele>1616.2</ele>
        <time>2021-08-25T16:39:25Z</time>
      </trkpt>
      <trkpt lat="45.89212" lon="6.39556">
        <ele>1615.3</ele>
        <time>2021-08-25T16:39:42Z</time>
      </trkpt>
      <trkpt lat="45.8922" lon="6.39571">
        <ele>1614.2</ele>
        <time>2021-08-25T16:39:52Z</time>
      </trkpt>
      <trkpt lat="45.89231" lon="6.39586">
        <ele>1613.5</ele>
        <time>2021-08-25T16:39:56Z</time>
      </trkpt>
      <trkpt lat="45.89236" lon="6.39593">
        <ele>1613.5</ele>
        <time>2021-08-25T16:40:11Z</time>
      </trkpt>
      <trkpt lat="45.89238" lon="6.39596">
        <ele>1613.5</ele>
        <time>2021-08-25T16:40:30Z</time>
      </trkpt>
      <trkpt lat="45.89244" lon="6.39614">
        <ele>1613.1</ele>
        <time>2021-08-25T16:40:36Z</time>
      </trkpt>
      <trkpt lat="45.89245" lon="6.39617">
        <ele>1613</ele>
        <time>2021-08-25T16:40:45Z</time>
      </trkpt>
      <trkpt lat="45.89244" lon="6.39637">
        <ele>1612</ele>
        <time>2021-08-25T16:40:55Z</time>
      </trkpt>
      <trkpt lat="45.89243" lon="6.39647">
        <ele>1611.5</ele>
        <time>2021-08-25T16:41:02Z</time>
      </trkpt>
      <trkpt lat="45.89242" lon="6.39668">
        <ele>1610.6</ele>
        <time>2021-08-25T16:41:11Z</time>
      </trkpt>
      <trkpt lat="45.89243" lon="6.39677">
        <ele>1611</ele>
        <time>2021-08-25T16:41:19Z</time>
      </trkpt>
      <trkpt lat="45.89245" lon="6.39695">
        <ele>1611.9</ele>
        <time>2021-08-25T16:41:23Z</time>
      </trkpt>
      <trkpt lat="45.89245" lon="6.39719">
        <ele>1612.9</ele>
        <time>2021-08-25T16:41:26Z</time>
      </trkpt>
      <trkpt lat="45.89243" lon="6.39741">
        <ele>1613.7</ele>
        <time>2021-08-25T16:41:46Z</time>
      </trkpt>
      <trkpt lat="45.89243" lon="6.39743">
        <ele>1613.7</ele>
        <time>2021-08-25T16:42:03Z</time>
      </trkpt>
      <trkpt lat="45.89244" lon="6.39755">
        <ele>1614.5</ele>
        <time>2021-08-25T16:42:05Z</time>
      </trkpt>
      <trkpt lat="45.89243" lon="6.39769">
        <ele>1615.4</ele>
        <time>2021-08-25T16:42:12Z</time>
      </trkpt>
      <trkpt lat="45.89242" lon="6.39794">
        <ele>1617</ele>
        <time>2021-08-25T16:42:32Z</time>
      </trkpt>
      <trkpt lat="45.89243" lon="6.39811">
        <ele>1618.3</ele>
        <time>2021-08-25T16:42:35Z</time>
      </trkpt>
      <trkpt lat="45.89243" lon="6.39815">
        <ele>1618.6</ele>
        <time>2021-08-25T16:42:41Z</time>
      </trkpt>
      <trkpt lat="45.89244" lon="6.3983">
        <ele>1619.7</ele>
        <time>2021-08-25T16:42:58Z</time>
      </trkpt>
      <trkpt lat="45.89241" lon="6.39845">
        <ele>1620.6</ele>
        <time>2021-08-25T16:43:16Z</time>
      </trkpt>
      <trkpt lat="45.89238" lon="6.39854">
        <ele>1620.8</ele>
        <time>2021-08-25T16:43:23Z</time>
      </trkpt>
      <trkpt lat="45.89237" lon="6.39861">
        <ele>1620.9</ele>
        <time>2021-08-25T16:43:41Z</time>
      </trkpt>
      <trkpt lat="45.89234" lon="6.39875">
        <ele>1621.5</ele>
        <time>2021-08-25T16:43:59Z</time>
      </trkpt>
      <trkpt lat="45.89232" lon="6.39889">
        <ele>1621.9</ele>
        <time>2021-08-25T16:44:03Z</time>
      </trkpt>
      <trkpt lat="45.89229" lon="6.39898">
        <ele>1621.8</ele>
        <time>2021-08-25T16:44:23Z</time>
      </trkpt>
      <trkpt lat="45.89224" lon="6.39911">
        <ele>1621.3</ele>
        <time>2021-08-25T16:44:30Z</time>
      </trkpt>
      <trkpt lat="45.89226" lon="6.39917">
        <ele>1622</ele>
        <time>2021-08-25T16:44:50Z</time>
      </trkpt>
      <trkpt lat="45.8923" lon="6.39935">
        <ele>1622</ele>
        <time>2021-08-25T16:45:10Z</time>
      </trkpt>
      <trkpt lat="45.89239" lon="6.39948">
        <ele>1623.9</ele>
        <time>2021-08-25T16:45:20Z</time>
      </trkpt>
      <trkpt lat="45.89247" lon="6.39958">
        <ele>1625.5</ele>
        <time>2021-08-25T16:45:38Z</time>
      </trkpt>
      <trkpt lat="45.89252" lon="6.39963">
        <ele>1625.9</ele>
        <time>2021-08-25T16:45:54Z</time>
      </trkpt>
      <trkpt lat="45.89263" lon="6.39981">
        <ele>1622.4</ele>
        <time>2021-08-25T16:45:59Z</time>
      </trkpt>
      <trkpt lat="45.89272" lon="6.4">
        <ele>1620.3</ele>
        <time>2021-08-25T16:46:04Z</time>
      </trkpt>
      <trkpt lat="45.89274" lon="6.40003">
        <ele>1619.8</ele>
        <time>2021-08-25T16:46:14Z</time>
      </trkpt>
      <trkpt lat="45.89277" lon="6.40014">
        <ele>1618.7</ele>
        <time>2021-08-25T16:46:17Z</time>
      </trkpt>
      <trkpt lat="45.89281" lon="6.40022">
        <ele>1617.9</ele>
        <time>2021-08-25T16:46:31Z</time>
      </trkpt>
      <trkpt lat="45.89283" lon="6.40024">
        <ele>1617.5</ele>
        <time>2021-08-25T16:46:48Z</time>
      </trkpt>
      <trkpt lat="45.89291" lon="6.40041">
        <ele>1616.3</ele>
        <time>2021-08-25T16:46:56Z</time>
      </trkpt>
      <trkpt lat="45.89292" lon="6.40054">
        <ele>1616</ele>
        <time>2021-08-25T16:47:02Z</time>
      </trkpt>
      <trkpt lat="45.89293" lon="6.40062">
        <ele>1615.9</ele>
        <time>2021-08-25T16:47:14Z</time>
      </trkpt>
      <trkpt lat="45.89291" lon="6.40067">
        <ele>1615.8</ele>
        <time>2021-08-25T16:47:34Z</time>
      </trkpt>
      <trkpt lat="45.8929" lon="6.40077">
        <ele>1615.6</ele>
        <time>2021-08-25T16:47:41Z</time>
      </trkpt>
      <trkpt lat="45.89289" lon="6.40081">
        <ele>1615.5</ele>
        <time>2021-08-25T16:47:55Z</time>
      </trkpt>
      <trkpt lat="45.89296" lon="6.40097">
        <ele>1614.5</ele>
        <time>2021-08-25T16:47:57Z</time>
      </trkpt>
      <trkpt lat="45.89305" lon="6.40109">
        <ele>1614.2</ele>
        <time>2021-08-25T16:48:05Z</time>
      </trkpt>
      <trkpt lat="45.89307" lon="6.40121">
        <ele>1613.6</ele>
        <time>2021-08-25T16:48:20Z</time>
      </trkpt>
      <trkpt lat="45.89308" lon="6.40123">
        <ele>1613.5</ele>
        <time>2021-08-25T16:48:26Z</time>
      </trkpt>
      <trkpt lat="45.89315" lon="6.40141">
        <ele>1613.1</ele>
        <time>2021-08-25T16:48:44Z</time>
      </trkpt>
      <trkpt lat="45.89321" lon="6.40154">
        <ele>1613</ele>
        <time>2021-08-25T16:48:58Z</time>
      </trkpt>
      <trkpt lat="45.89321" lon="6.40156">
        <ele>1612.9</ele>
        <time>2021-08-25T16:49:01Z</time>
      </trkpt>
      <trkpt lat="45.89324" lon="6.40162">
        <ele>1613.1</ele>
        <time>2021-08-25T16:49:16Z</time>
      </trkpt>
      <trkpt lat="45.89333" lon="6.40178">
        <ele>1613.8</ele>
        <time>2021-08-25T16:49:26Z</time>
      </trkpt>
      <trkpt lat="45.89339" lon="6.40196">
        <ele>1612.8</ele>
        <time>2021-08-25T16:49:46Z</time>
      </trkpt>
      <trkpt lat="45.89339" lon="6.402">
        <ele>1612.7</ele>
        <time>2021-08-25T16:50:05Z</time>
      </trkpt>
      <trkpt lat="45.89342" lon="6.4021">
        <ele>1612.4</ele>
        <time>2021-08-25T16:50:12Z</time>
      </trkpt>
      <trkpt lat="45.89344" lon="6.40217">
        <ele>1612.1</ele>
        <time>2021-08-25T16:50:22Z</time>
      </trkpt>
      <trkpt lat="45.89351" lon="6.40241">
        <ele>1612.1</ele>
        <time>2021-08-25T16:50:29Z</time>
      </trkpt>
      <trkpt lat="45.89353" lon="6.40249">
        <ele>1612.2</ele>
        <time>2021-08-25T16:50:32Z</time>
      </trkpt>
      <trkpt lat="45.89355" lon="6.40253">
        <ele>1612.1</ele>
        <time>2021-08-25T16:50:38Z</time>
      </trkpt>
      <trkpt lat="45.89357" lon="6.40262">
        <ele>1611.7</ele>
        <time>2021-08-25T16:50:44Z</time>
      </trkpt>
      <trkpt lat="45.89359" lon="6.40272">
        <ele>1611.3</ele>
        <time>2021-08-25T16:50:49Z</time>
      </trkpt>
      <trkpt lat="45.89366" lon="6.40292">
        <ele>1610.5</ele>
        <time>2021-08-25T16:50:53Z</time>
      </trkpt>
      <trkpt lat="45.89369" lon="6.403">
        <ele>1610.3</ele>
        <time>2021-08-25T16:51:13Z</time>
      </trkpt>
      <trkpt lat="45.89372" lon="6.40301">
        <ele>1610.2</ele>
        <time>2021-08-25T16:51:15Z</time>
      </trkpt>
      <trkpt lat="45.89378" lon="6.40306">
        <ele>1610.2</ele>
        <time>2021-08-25T16:51:35Z</time>
      </trkpt>
      <trkpt lat="45.89379" lon="6.40311">
        <ele>1610.1</ele>
        <time>2021-08-25T16:51:45Z</time>
      </trkpt>
      <trkpt lat="45.8938" lon="6.40313">
        <ele>1610.1</ele>
        <time>2021-08-25T16:52:01Z</time>
      </trkpt>
      <trkpt lat="45.8938" lon="6.40315">
        <ele>1610</ele>
        <time>2021-08-25T16:52:14Z</time>
      </trkpt>
      <trkpt lat="45.89379" lon="6.40313">
        <ele>1610.1</ele>
        <time>2021-08-25T16:52:18Z</time>
      </trkpt>
      <trkpt lat="45.89379" lon="6.40309">
        <ele>1610.1</ele>
        <time>2021-08-25T16:52:37Z</time>
      </trkpt>
      <trkpt lat="45.89378" lon="6.40306">
        <ele>1610.2</ele>
        <time>2021-08-25T16:52:43Z</time>
      </trkpt>
      <trkpt lat="45.89378" lon="6.40306">
        <ele>1610.2</ele>
        <time>2021-08-25T16:52:47Z</time>
      </trkpt>
      <trkpt lat="45.89375" lon="6.40304">
        <ele>1610.2</ele>
        <time>2021-08-25T16:53:04Z</time>
      </trkpt>
      <trkpt lat="45.89372" lon="6.40303">
        <ele>1610.2</ele>
        <time>2021-08-25T16:53:14Z</time>
      </trkpt>
      <trkpt lat="45.89371" lon="6.40305">
        <ele>1610.1</ele>
        <time>2021-08-25T16:53:31Z</time>
      </trkpt>
      <trkpt lat="45.89371" lon="6.40308">
        <ele>1610</ele>
        <time>2021-08-25T16:53:45Z</time>
      </trkpt>
      <trkpt lat="45.89371" lon="6.40308">
        <ele>1610</ele>
        <time>2021-08-25T16:53:59Z</time>
      </trkpt>
      <trkpt lat="45.89372" lon="6.40311">
        <ele>1610</ele>
        <time>2021-08-25T16:54:16Z</time>
      </trkpt>
      <trkpt lat="45.89376" lon="6.40334">
        <ele>1609.5</ele>
        <time>2021-08-25T16:54:22Z</time>
      </trkpt>
      <trkpt lat="45.89381" lon="6.40347">
        <ele>1609.3</ele>
        <time>2021-08-25T16:54:26Z</time>
      </trkpt>
      <trkpt lat="45.89381" lon="6.40369">
        <ele>1608.5</ele>
        <time>2021-08-25T16:54:31Z</time>
      </trkpt>
      <trkpt lat="45.89371" lon="6.40389">
        <ele>1607.8</ele>
        <time>2021-08-25T16:54:47Z</time>
      </trkpt>
      <trkpt lat="45.89365" lon="6.40406">
        <ele>1607.5</ele>
        <time>2021-08-25T16:55:03Z</time>
      </trkpt>
      <trkpt lat="45.89363" lon="6.40414">
        <ele>1607.3</ele>
        <time>2021-08-25T16:55:07Z</time>
      </trkpt>
      <trkpt lat="45.89362" lon="6.4044">
        <ele>1608.2</ele>
        <time>2021-08-25T16:55:19Z</time>
      </trkpt>
      <trkpt lat="45.89363" lon="6.40446">
        <ele>1608.4</ele>
        <time>2021-08-25T16:55:29Z</time>
      </trkpt>
      <trkpt lat="45.89367" lon="6.4047">
        <ele>1609</ele>
        <time>2021-08-25T16:55:41Z</time>
      </trkpt>
      <trkpt lat="45.89367" lon="6.40477">
        <ele>1609.2</ele>
        <time>2021-08-25T16:55:47Z</time>
      </trkpt>
      <trkpt lat="45.89362" lon="6.40497">
        <ele>1610.5</ele>
        <time>2021-08-25T16:56:00Z</time>
      </trkpt>
      <trkpt lat="45.89356" lon="6.40509">
        <ele>1612.2</ele>
        <time>2021-08-25T16:56:12Z</time>
      </trkpt>
      <trkpt lat="45.89345" lon="6.4052">
        <ele>1614.7</ele>
        <time>2021-08-25T16:56:31Z</time>
      </trkpt>
      <trkpt lat="45.89333" lon="6.40524">
        <ele>1616.6</ele>
        <time>2021-08-25T16:56:38Z</time>
      </trkpt>
      <trkpt lat="45.8932" lon="6.40532">
        <ele>1616.4</ele>
        <time>2021-08-25T16:56:47Z</time>
      </trkpt>
      <trkpt lat="45.89305" lon="6.40542">
        <ele>1616.2</ele>
        <time>2021-08-25T16:57:04Z</time>
      </trkpt>
      <trkpt lat="45.89291" lon="6.40551">
        <ele>1615.7</ele>
        <time>2021-08-25T16:57:19Z</time>
      </trkpt>
      <trkpt lat="45.8929" lon="6.40552">
        <ele>1615.7</ele>
        <time>2021-08-25T16:57:28Z</time>
      </trkpt>
      <trkpt lat="45.89293" lon="6.40563">
        <ele>1617</ele>
        <time>2021-08-25T16:57:34Z</time>
      </trkpt>
      <trkpt lat="45.89307" lon="6.40572">
        <ele>1619.1</ele>
        <time>2021-08-25T16:57:54Z</time>
      </trkpt>
      <trkpt lat="45.8931" lon="6.40576">
        <ele>1619.8</ele>
        <time>2021-08-25T16:58:11Z</time>
      </trkpt>
      <trkpt lat="45.8932" lon="6.40584">
        <ele>1621.7</ele>
        <time>2021-08-25T16:58:20Z</time>
      </trkpt>
      <trkpt lat="45.89332" lon="6.40596">
        <ele>1624.5</ele>
        <time>2021-08-25T16:58:32Z</time>
      </trkpt>
      <trkpt lat="45.89343" lon="6.40608">
        <ele>1624.9</ele>
        <time>2021-08-25T16:58:50Z</time>
      </trkpt>
      <trkpt lat="45.8935" lon="6.40614">
        <ele>1624.7</ele>
        <time>2021-08-25T16:58:53Z</time>
      </trkpt>
      <trkpt lat="45.8936" lon="6.40623">
        <ele>1624.4</ele>
        <time>2021-08-25T16:59:08Z</time>
      </trkpt>
      <trkpt lat="45.89361" lon="6.40626">
        <ele>1624.6</ele>
        <time>2021-08-25T16:59:14Z</time>
      </trkpt>
      <trkpt lat="45.89371" lon="6.4064">
        <ele>1624.9</ele>
        <time>2021-08-25T16:59:29Z</time>
      </trkpt>
      <trkpt lat="45.89372" lon="6.40643">
        <ele>1625.1</ele>
        <time>2021-08-25T16:59:45Z</time>
      </trkpt>
      <trkpt lat="45.89375" lon="6.40652">
        <ele>1625.8</ele>
        <time>2021-08-25T16:59:59Z</time>
      </trkpt>
      <trkpt lat="45.89376" lon="6.40657">
        <ele>1626.1</ele>
        <time>2021-08-25T17:00:16Z</time>
      </trkpt>
      <trkpt lat="45.89366" lon="6.4066">
        <ele>1628.1</ele>
        <time>2021-08-25T17:00:35Z</time>
      </trkpt>
      <trkpt lat="45.89358" lon="6.40665">
        <ele>1630</ele>
        <time>2021-08-25T17:00:44Z</time>
      </trkpt>
      <trkpt lat="45.89344" lon="6.40671">
        <ele>1632.2</ele>
        <time>2021-08-25T17:00:46Z</time>
      </trkpt>
      <trkpt lat="45.89342" lon="6.40672">
        <ele>1632.4</ele>
        <time>2021-08-25T17:01:03Z</time>
      </trkpt>
      <trkpt lat="45.89341" lon="6.40681">
        <ele>1632.2</ele>
        <time>2021-08-25T17:01:11Z</time>
      </trkpt>
      <trkpt lat="45.89341" lon="6.40686">
        <ele>1632.1</ele>
        <time>2021-08-25T17:01:27Z</time>
      </trkpt>
      <trkpt lat="45.89348" lon="6.40704">
        <ele>1630.2</ele>
        <time>2021-08-25T17:01:31Z</time>
      </trkpt>
      <trkpt lat="45.8935" lon="6.40709">
        <ele>1629.6</ele>
        <time>2021-08-25T17:01:43Z</time>
      </trkpt>
      <trkpt lat="45.89357" lon="6.40715">
        <ele>1628.1</ele>
        <time>2021-08-25T17:01:59Z</time>
      </trkpt>
      <trkpt lat="45.89371" lon="6.40718">
        <ele>1625.5</ele>
        <time>2021-08-25T17:02:02Z</time>
      </trkpt>
      <trkpt lat="45.89383" lon="6.40709">
        <ele>1623.8</ele>
        <time>2021-08-25T17:02:21Z</time>
      </trkpt>
      <trkpt lat="45.89385" lon="6.40708">
        <ele>1623.5</ele>
        <time>2021-08-25T17:02:28Z</time>
      </trkpt>
      <trkpt lat="45.89386" lon="6.40707">
        <ele>1623.4</ele>
        <time>2021-08-25T17:02:41Z</time>
      </trkpt>
      <trkpt lat="45.89386" lon="6.40707">
        <ele>1623.4</ele>
        <time>2021-08-25T17:02:56Z</time>
      </trkpt>
      <trkpt lat="45.89388" lon="6.40705">
        <ele>1623.2</ele>
        <time>2021-08-25T17:03:08Z</time>
      </trkpt>
      <trkpt lat="45.89387" lon="6.40704">
        <ele>1623.5</ele>
        <time>2021-08-25T17:03:21Z</time>
      </trkpt>
      <trkpt lat="45.89386" lon="6.40709">
        <ele>1623.2</ele>
        <time>2021-08-25T17:03:30Z</time>
      </trkpt>
      <trkpt lat="45.89386" lon="6.40709">
        <ele>1623.4</ele>
        <time>2021-08-25T17:03:49Z</time>
      </trkpt>
      <trkpt lat="45.89382" lon="6.4071">
        <ele>1624</ele>
        <time>2021-08-25T17:04:01Z</time>
      </trkpt>
      <trkpt lat="45.89379" lon="6.40711">
        <ele>1624.5</ele>
        <time>2021-08-25T17:04:11Z</time>
      </trkpt>
      <trkpt lat="45.89363" lon="6.4071">
        <ele>1627.3</ele>
        <time>2021-08-25T17:04:17Z</time>
      </trkpt>
      <trkpt lat="45.89356" lon="6.40711">
        <ele>1628.5</ele>
        <time>2021-08-25T17:04:24Z</time>
      </trkpt>
      <trkpt lat="45.89352" lon="6.4071">
        <ele>1629.2</ele>
        <time>2021-08-25T17:04:38Z</time>
      </trkpt>
      <trkpt lat="45.89353" lon="6.40711">
        <ele>1629.1</ele>
        <time>2021-08-25T17:04:51Z</time>
      </trkpt>
      <trkpt lat="45.89348" lon="6.40707">
        <ele>1630.1</ele>
        <time>2021-08-25T17:04:56Z</time>
      </trkpt>
      <trkpt lat="45.89344" lon="6.40704">
        <ele>1630.8</ele>
        <time>2021-08-25T17:05:12Z</time>
      </trkpt>
      <trkpt lat="45.89342" lon="6.4068">
        <ele>1632.1</ele>
        <time>2021-08-25T17:05:24Z</time>
      </trkpt>
      <trkpt lat="45.89349" lon="6.40662">
        <ele>1630.9</ele>
        <time>2021-08-25T17:05:38Z</time>
      </trkpt>
      <trkpt lat="45.89354" lon="6.40663">
        <ele>1630.4</ele>
        <time>2021-08-25T17:05:53Z</time>
      </trkpt>
      <trkpt lat="45.89362" lon="6.40655">
        <ele>1628</ele>
        <time>2021-08-25T17:06:12Z</time>
      </trkpt>
      <trkpt lat="45.89364" lon="6.40653">
        <ele>1627.6</ele>
        <time>2021-08-25T17:06:24Z</time>
      </trkpt>
      <trkpt lat="45.89368" lon="6.40647">
        <ele>1626.2</ele>
        <time>2021-08-25T17:06:29Z</time>
      </trkpt>
      <trkpt lat="45.89366" lon="6.4063">
        <ele>1624.4</ele>
        <time>2021-08-25T17:06:42Z</time>
      </trkpt>
      <trkpt lat="45.89356" lon="6.40621">
        <ele>1624.7</ele>
        <time>2021-08-25T17:06:55Z</time>
      </trkpt>
      <trkpt lat="45.89354" lon="6.40619">
        <ele>1624.8</ele>
        <time>2021-08-25T17:07:04Z</time>
      </trkpt>
      <trkpt lat="45.89344" lon="6.40609">
        <ele>1624.9</ele>
        <time>2021-08-25T17:07:19Z</time>
      </trkpt>
      <trkpt lat="45.89339" lon="6.40603">
        <ele>1624.7</ele>
        <time>2021-08-25T17:07:35Z</time>
      </trkpt>
      <trkpt lat="45.89327" lon="6.4059">
        <ele>1623.1</ele>
        <time>2021-08-25T17:07:37Z</time>
      </trkpt>
      <trkpt lat="45.89308" lon="6.40573">
        <ele>1619.2</ele>
        <time>2021-08-25T17:07:39Z</time>
      </trkpt>
      <trkpt lat="45.89297" lon="6.40565">
        <ele>1617.5</ele>
        <time>2021-08-25T17:07:41Z</time>
      </trkpt>
      <trkpt lat="45.89288" lon="6.4056">
        <ele>1616.2</ele>
        <time>2021-08-25T17:07:47Z</time>
      </trkpt>
      <trkpt lat="45.89279" lon="6.40562">
        <ele>1615.5</ele>
        <time>2021-08-25T17:08:06Z</time>
      </trkpt>
      <trkpt lat="45.89273" lon="6.40566">
        <ele>1615.3</ele>
        <time>2021-08-25T17:08:14Z</time>
      </trkpt>
      <trkpt lat="45.89265" lon="6.40579">
        <ele>1615.4</ele>
        <time>2021-08-25T17:08:18Z</time>
      </trkpt>
      <trkpt lat="45.89264" lon="6.40583">
        <ele>1615.5</ele>
        <time>2021-08-25T17:08:37Z</time>
      </trkpt>
      <trkpt lat="45.89258" lon="6.40598">
        <ele>1614.6</ele>
        <time>2021-08-25T17:08:52Z</time>
      </trkpt>
      <trkpt lat="45.89254" lon="6.40629">
        <ele>1613.2</ele>
        <time>2021-08-25T17:09:04Z</time>
      </trkpt>
      <trkpt lat="45.89254" lon="6.40636">
        <ele>1612.9</ele>
        <time>2021-08-25T17:09:18Z</time>
      </trkpt>
      <trkpt lat="45.89252" lon="6.40646">
        <ele>1612.3</ele>
        <time>2021-08-25T17:09:30Z</time>
      </trkpt>
      <trkpt lat="45.89251" lon="6.40667">
        <ele>1611.3</ele>
        <time>2021-08-25T17:09:43Z</time>
      </trkpt>
      <trkpt lat="45.89258" lon="6.40697">
        <ele>1611.2</ele>
        <time>2021-08-25T17:09:50Z</time>
      </trkpt>
      <trkpt lat="45.8926" lon="6.40708">
        <ele>1611</ele>
        <time>2021-08-25T17:10:06Z</time>
      </trkpt>
      <trkpt lat="45.89259" lon="6.40719">
        <ele>1610</ele>
        <time>2021-08-25T17:10:20Z</time>
      </trkpt>
      <trkpt lat="45.89259" lon="6.40721">
        <ele>1609.7</ele>
        <time>2021-08-25T17:10:25Z</time>
      </trkpt>
      <trkpt lat="45.89255" lon="6.40726">
        <ele>1608.2</ele>
        <time>2021-08-25T17:10:35Z</time>
      </trkpt>
      <trkpt lat="45.89248" lon="6.40727">
        <ele>1606</ele>
        <time>2021-08-25T17:10:48Z</time>
      </trkpt>
      <trkpt lat="45.89245" lon="6.40725">
        <ele>1605.3</ele>
        <time>2021-08-25T17:11:04Z</time>
      </trkpt>
      <trkpt lat="45.89236" lon="6.40715">
        <ele>1603.5</ele>
        <time>2021-08-25T17:11:13Z</time>
      </trkpt>
      <trkpt lat="45.89232" lon="6.4071">
        <ele>1602.5</ele>
        <time>2021-08-25T17:11:18Z</time>
      </trkpt>
      <trkpt lat="45.89227" lon="6.40706">
        <ele>1601.6</ele>
        <time>2021-08-25T17:11:27Z</time>
      </trkpt>
      <trkpt lat="45.89213" lon="6.40694">
        <ele>1598.2</ele>
        <time>2021-08-25T17:11:41Z</time>
      </trkpt>
      <trkpt lat="45.89212" lon="6.40693">
        <ele>1598.1</ele>
        <time>2021-08-25T17:11:52Z</time>
      </trkpt>
      <trkpt lat="45.89211" lon="6.4069">
        <ele>1598</ele>
        <time>2021-08-25T17:11:56Z</time>
      </trkpt>
      <trkpt lat="45.89202" lon="6.40679">
        <ele>1596.1</ele>
        <time>2021-08-25T17:12:05Z</time>
      </trkpt>
      <trkpt lat="45.89201" lon="6.40678">
        <ele>1596.1</ele>
        <time>2021-08-25T17:12:25Z</time>
      </trkpt>
      <trkpt lat="45.89196" lon="6.40664">
        <ele>1595.4</ele>
        <time>2021-08-25T17:12:30Z</time>
      </trkpt>
      <trkpt lat="45.89195" lon="6.40658">
        <ele>1595.5</ele>
        <time>2021-08-25T17:12:41Z</time>
      </trkpt>
      <trkpt lat="45.89193" lon="6.40651">
        <ele>1595.1</ele>
        <time>2021-08-25T17:12:50Z</time>
      </trkpt>
      <trkpt lat="45.89191" lon="6.40643">
        <ele>1594.9</ele>
        <time>2021-08-25T17:12:55Z</time>
      </trkpt>
      <trkpt lat="45.89189" lon="6.40628">
        <ele>1594.7</ele>
        <time>2021-08-25T17:13:05Z</time>
      </trkpt>
      <trkpt lat="45.89188" lon="6.40626">
        <ele>1594.6</ele>
        <time>2021-08-25T17:13:19Z</time>
      </trkpt>
      <trkpt lat="45.89186" lon="6.40617">
        <ele>1594.2</ele>
        <time>2021-08-25T17:13:26Z</time>
      </trkpt>
      <trkpt lat="45.89184" lon="6.4061">
        <ele>1594</ele>
        <time>2021-08-25T17:13:28Z</time>
      </trkpt>
      <trkpt lat="45.89181" lon="6.40585">
        <ele>1594.1</ele>
        <time>2021-08-25T17:13:36Z</time>
      </trkpt>
      <trkpt lat="45.89179" lon="6.40575">
        <ele>1593.2</ele>
        <time>2021-08-25T17:13:42Z</time>
      </trkpt>
      <trkpt lat="45.89178" lon="6.40574">
        <ele>1593</ele>
        <time>2021-08-25T17:13:45Z</time>
      </trkpt>
      <trkpt lat="45.89169" lon="6.40567">
        <ele>1590.4</ele>
        <time>2021-08-25T17:13:49Z</time>
      </trkpt>
      <trkpt lat="45.89166" lon="6.40567">
        <ele>1589.4</ele>
        <time>2021-08-25T17:14:05Z</time>
      </trkpt>
      <trkpt lat="45.89155" lon="6.40582">
        <ele>1587.6</ele>
        <time>2021-08-25T17:14:20Z</time>
      </trkpt>
      <trkpt lat="45.89154" lon="6.40585">
        <ele>1587.3</ele>
        <time>2021-08-25T17:14:39Z</time>
      </trkpt>
      <trkpt lat="45.8915" lon="6.40592">
        <ele>1586.3</ele>
        <time>2021-08-25T17:14:57Z</time>
      </trkpt>
      <trkpt lat="45.89141" lon="6.40607">
        <ele>1584.1</ele>
        <time>2021-08-25T17:15:05Z</time>
      </trkpt>
      <trkpt lat="45.89133" lon="6.40627">
        <ele>1581.9</ele>
        <time>2021-08-25T17:15:21Z</time>
      </trkpt>
      <trkpt lat="45.89132" lon="6.40629">
        <ele>1581.8</ele>
        <time>2021-08-25T17:15:35Z</time>
      </trkpt>
      <trkpt lat="45.89125" lon="6.40646">
        <ele>1580</ele>
        <time>2021-08-25T17:15:54Z</time>
      </trkpt>
      <trkpt lat="45.8912" lon="6.40657">
        <ele>1578.8</ele>
        <time>2021-08-25T17:16:03Z</time>
      </trkpt>
      <trkpt lat="45.89113" lon="6.40664">
        <ele>1577.5</ele>
        <time>2021-08-25T17:16:16Z</time>
      </trkpt>
      <trkpt lat="45.89108" lon="6.40666">
        <ele>1576.4</ele>
        <time>2021-08-25T17:16:20Z</time>
      </trkpt>
      <trkpt lat="45.89104" lon="6.40667">
        <ele>1575.7</ele>
        <time>2021-08-25T17:16:40Z</time>
      </trkpt>
      <trkpt lat="45.89101" lon="6.40666">
        <ele>1575.2</ele>
        <time>2021-08-25T17:16:44Z</time>
      </trkpt>
      <trkpt lat="45.89092" lon="6.40664">
        <ele>1573.6</ele>
        <time>2021-08-25T17:16:55Z</time>
      </trkpt>
      <trkpt lat="45.89081" lon="6.40663">
        <ele>1571.6</ele>
        <time>2021-08-25T17:17:07Z</time>
      </trkpt>
      <trkpt lat="45.89072" lon="6.40665">
        <ele>1570.1</ele>
        <time>2021-08-25T17:17:25Z</time>
      </trkpt>
      <trkpt lat="45.8907" lon="6.40666">
        <ele>1569.8</ele>
        <time>2021-08-25T17:17:36Z</time>
      </trkpt>
      <trkpt lat="45.89059" lon="6.40671">
        <ele>1567.4</ele>
        <time>2021-08-25T17:17:49Z</time>
      </trkpt>
      <trkpt lat="45.89056" lon="6.40671">
        <ele>1566.8</ele>
        <time>2021-08-25T17:18:08Z</time>
      </trkpt>
      <trkpt lat="45.8905" lon="6.40671">
        <ele>1566</ele>
        <time>2021-08-25T17:18:21Z</time>
      </trkpt>
      <trkpt lat="45.89046" lon="6.4067">
        <ele>1565.4</ele>
        <time>2021-08-25T17:18:33Z</time>
      </trkpt>
      <trkpt lat="45.89042" lon="6.40669">
        <ele>1564.7</ele>
        <time>2021-08-25T17:18:47Z</time>
      </trkpt>
      <trkpt lat="45.89026" lon="6.40663">
        <ele>1562.4</ele>
        <time>2021-08-25T17:18:58Z</time>
      </trkpt>
      <trkpt lat="45.89014" lon="6.40658">
        <ele>1560.7</ele>
        <time>2021-08-25T17:19:03Z</time>
      </trkpt>
      <trkpt lat="45.89005" lon="6.40654">
        <ele>1559.4</ele>
        <time>2021-08-25T17:19:16Z</time>
      </trkpt>
      <trkpt lat="45.89001" lon="6.40653">
        <ele>1558.8</ele>
        <time>2021-08-25T17:19:32Z</time>
      </trkpt>
      <trkpt lat="45.88983" lon="6.40647">
        <ele>1556</ele>
        <time>2021-08-25T17:19:51Z</time>
      </trkpt>
      <trkpt lat="45.88965" lon="6.40642">
        <ele>1553.1</ele>
        <time>2021-08-25T17:20:02Z</time>
      </trkpt>
      <trkpt lat="45.88963" lon="6.40642">
        <ele>1552.7</ele>
        <time>2021-08-25T17:20:09Z</time>
      </trkpt>
      <trkpt lat="45.88959" lon="6.40641">
        <ele>1552</ele>
        <time>2021-08-25T17:20:13Z</time>
      </trkpt>
      <trkpt lat="45.8894" lon="6.40637">
        <ele>1548.8</ele>
        <time>2021-08-25T17:20:17Z</time>
      </trkpt>
      <trkpt lat="45.88932" lon="6.40635">
        <ele>1547.4</ele>
        <time>2021-08-25T17:20:32Z</time>
      </trkpt>
      <trkpt lat="45.88924" lon="6.40634">
        <ele>1546</ele>
        <time>2021-08-25T17:20:41Z</time>
      </trkpt>
      <trkpt lat="45.88914" lon="6.40634">
        <ele>1544.5</ele>
        <time>2021-08-25T17:20:46Z</time>
      </trkpt>
      <trkpt lat="45.88895" lon="6.4063">
        <ele>1542.5</ele>
        <time>2021-08-25T17:21:05Z</time>
      </trkpt>
      <trkpt lat="45.88885" lon="6.40626">
        <ele>1541.4</ele>
        <time>2021-08-25T17:21:25Z</time>
      </trkpt>
      <trkpt lat="45.88881" lon="6.40624">
        <ele>1540.9</ele>
        <time>2021-08-25T17:21:29Z</time>
      </trkpt>
      <trkpt lat="45.88866" lon="6.40609">
        <ele>1539</ele>
        <time>2021-08-25T17:21:46Z</time>
      </trkpt>
      <trkpt lat="45.8886" lon="6.40604">
        <ele>1538.2</ele>
        <time>2021-08-25T17:21:51Z</time>
      </trkpt>
      <trkpt lat="45.8885" lon="6.40597">
        <ele>1536.7</ele>
        <time>2021-08-25T17:21:56Z</time>
      </trkpt>
      <trkpt lat="45.88847" lon="6.40596">
        <ele>1536.3</ele>
        <time>2021-08-25T17:22:13Z</time>
      </trkpt>
      <trkpt lat="45.88833" lon="6.40597">
        <ele>1534.4</ele>
        <time>2021-08-25T17:22:23Z</time>
      </trkpt>
      <trkpt lat="45.88819" lon="6.40605">
        <ele>1533</ele>
        <time>2021-08-25T17:22:38Z</time>
      </trkpt>
      <trkpt lat="45.88811" lon="6.40613">
        <ele>1532.4</ele>
        <time>2021-08-25T17:22:54Z</time>
      </trkpt>
      <trkpt lat="45.88808" lon="6.40617">
        <ele>1532.3</ele>
        <time>2021-08-25T17:23:10Z</time>
      </trkpt>
      <trkpt lat="45.88804" lon="6.40627">
        <ele>1532.3</ele>
        <time>2021-08-25T17:23:21Z</time>
      </trkpt>
      <trkpt lat="45.88798" lon="6.40644">
        <ele>1532.5</ele>
        <time>2021-08-25T17:23:39Z</time>
      </trkpt>
      <trkpt lat="45.88794" lon="6.40646">
        <ele>1532.1</ele>
        <time>2021-08-25T17:23:48Z</time>
      </trkpt>
      <trkpt lat="45.88791" lon="6.40646">
        <ele>1531.8</ele>
        <time>2021-08-25T17:24:03Z</time>
      </trkpt>
      <trkpt lat="45.88786" lon="6.40625">
        <ele>1530.1</ele>
        <time>2021-08-25T17:24:05Z</time>
      </trkpt>
      <trkpt lat="45.88787" lon="6.40619">
        <ele>1529.8</ele>
        <time>2021-08-25T17:24:15Z</time>
      </trkpt>
      <trkpt lat="45.88787" lon="6.40609">
        <ele>1529.3</ele>
        <time>2021-08-25T17:24:18Z</time>
      </trkpt>
      <trkpt lat="45.88788" lon="6.40603">
        <ele>1529</ele>
        <time>2021-08-25T17:24:35Z</time>
      </trkpt>
      <trkpt lat="45.88784" lon="6.40583">
        <ele>1527.4</ele>
        <time>2021-08-25T17:24:47Z</time>
      </trkpt>
      <trkpt lat="45.88782" lon="6.40575">
        <ele>1526.7</ele>
        <time>2021-08-25T17:24:58Z</time>
      </trkpt>
      <trkpt lat="45.88782" lon="6.40566">
        <ele>1526.2</ele>
        <time>2021-08-25T17:25:04Z</time>
      </trkpt>
      <trkpt lat="45.88781" lon="6.40555">
        <ele>1525.4</ele>
        <time>2021-08-25T17:25:19Z</time>
      </trkpt>
      <trkpt lat="45.88784" lon="6.40548">
        <ele>1525.2</ele>
        <time>2021-08-25T17:25:30Z</time>
      </trkpt>
      <trkpt lat="45.88791" lon="6.40538">
        <ele>1525.4</ele>
        <time>2021-08-25T17:25:39Z</time>
      </trkpt>
      <trkpt lat="45.88792" lon="6.4053">
        <ele>1525</ele>
        <time>2021-08-25T17:25:44Z</time>
      </trkpt>
      <trkpt lat="45.88791" lon="6.40526">
        <ele>1524.7</ele>
        <time>2021-08-25T17:25:53Z</time>
      </trkpt>
      <trkpt lat="45.88795" lon="6.40506">
        <ele>1523.8</ele>
        <time>2021-08-25T17:26:01Z</time>
      </trkpt>
      <trkpt lat="45.88791" lon="6.40485">
        <ele>1522.9</ele>
        <time>2021-08-25T17:26:09Z</time>
      </trkpt>
      <trkpt lat="45.88779" lon="6.40477">
        <ele>1521.9</ele>
        <time>2021-08-25T17:26:13Z</time>
      </trkpt>
      <trkpt lat="45.88771" lon="6.4047">
        <ele>1521.3</ele>
        <time>2021-08-25T17:26:21Z</time>
      </trkpt>
      <trkpt lat="45.88767" lon="6.40462">
        <ele>1521.2</ele>
        <time>2021-08-25T17:26:32Z</time>
      </trkpt>
      <trkpt lat="45.88769" lon="6.40461">
        <ele>1521.4</ele>
        <time>2021-08-25T17:26:35Z</time>
      </trkpt>
      <trkpt lat="45.88769" lon="6.40446">
        <ele>1521.5</ele>
        <time>2021-08-25T17:26:50Z</time>
      </trkpt>
      <trkpt lat="45.88771" lon="6.40441">
        <ele>1521.7</ele>
        <time>2021-08-25T17:27:06Z</time>
      </trkpt>
      <trkpt lat="45.88773" lon="6.40439">
        <ele>1521.8</ele>
        <time>2021-08-25T17:27:24Z</time>
      </trkpt>
      <trkpt lat="45.88772" lon="6.40439">
        <ele>1521.8</ele>
        <time>2021-08-25T17:27:39Z</time>
      </trkpt>
      <trkpt lat="45.88773" lon="6.40439">
        <ele>1521.8</ele>
        <time>2021-08-25T17:27:44Z</time>
      </trkpt>
      <trkpt lat="45.88772" lon="6.40434">
        <ele>1521.9</ele>
        <time>2021-08-25T17:27:57Z</time>
      </trkpt>
      <trkpt lat="45.88773" lon="6.40428">
        <ele>1522</ele>
        <time>2021-08-25T17:28:11Z</time>
      </trkpt>
      <trkpt lat="45.88772" lon="6.40403">
        <ele>1523.2</ele>
        <time>2021-08-25T17:28:16Z</time>
      </trkpt>
      <trkpt lat="45.88751" lon="6.40379">
        <ele>1525.1</ele>
        <time>2021-08-25T17:28:25Z</time>
      </trkpt>
      <trkpt lat="45.8874" lon="6.4038">
        <ele>1525</ele>
        <time>2021-08-25T17:28:44Z</time>
      </trkpt>
      <trkpt lat="45.88734" lon="6.40381">
        <ele>1524.7</ele>
        <time>2021-08-25T17:29:03Z</time>
      </trkpt>
      <trkpt lat="45.88732" lon="6.40381">
        <ele>1524.7</ele>
        <time>2021-08-25T17:29:16Z</time>
      </trkpt>
      <trkpt lat="45.88717" lon="6.40399">
        <ele>1522.6</ele>
        <time>2021-08-25T17:29:24Z</time>
      </trkpt>
      <trkpt lat="45.88715" lon="6.40401">
        <ele>1522.3</ele>
        <time>2021-08-25T17:29:41Z</time>
      </trkpt>
      <trkpt lat="45.88709" lon="6.40406">
        <ele>1521.8</ele>
        <time>2021-08-25T17:30:01Z</time>
      </trkpt>
      <trkpt lat="45.8869" lon="6.40417">
        <ele>1520.3</ele>
        <time>2021-08-25T17:30:10Z</time>
      </trkpt>
      <trkpt lat="45.88685" lon="6.40426">
        <ele>1519.4</ele>
        <time>2021-08-25T17:30:29Z</time>
      </trkpt>
      <trkpt lat="45.88678" lon="6.40435">
        <ele>1518.4</ele>
        <time>2021-08-25T17:30:48Z</time>
      </trkpt>
      <trkpt lat="45.88672" lon="6.40439">
        <ele>1517.8</ele>
        <time>2021-08-25T17:31:05Z</time>
      </trkpt>
      <trkpt lat="45.88665" lon="6.40443">
        <ele>1517.1</ele>
        <time>2021-08-25T17:31:16Z</time>
      </trkpt>
      <trkpt lat="45.88655" lon="6.40449">
        <ele>1516.6</ele>
        <time>2021-08-25T17:31:21Z</time>
      </trkpt>
      <trkpt lat="45.88639" lon="6.40453">
        <ele>1516</ele>
        <time>2021-08-25T17:31:35Z</time>
      </trkpt>
      <trkpt lat="45.88635" lon="6.40452">
        <ele>1516.2</ele>
        <time>2021-08-25T17:31:43Z</time>
      </trkpt>
      <trkpt lat="45.88629" lon="6.40451">
        <ele>1516.3</ele>
        <time>2021-08-25T17:32:00Z</time>
      </trkpt>
      <trkpt lat="45.88611" lon="6.40447">
        <ele>1516.7</ele>
        <time>2021-08-25T17:32:19Z</time>
      </trkpt>
      <trkpt lat="45.88595" lon="6.40446">
        <ele>1516.8</ele>
        <time>2021-08-25T17:32:28Z</time>
      </trkpt>
      <trkpt lat="45.88591" lon="6.40445">
        <ele>1516.9</ele>
        <time>2021-08-25T17:32:41Z</time>
      </trkpt>
      <trkpt lat="45.88572" lon="6.40439">
        <ele>1517.4</ele>
        <time>2021-08-25T17:32:45Z</time>
      </trkpt>
      <trkpt lat="45.88557" lon="6.40436">
        <ele>1517.6</ele>
        <time>2021-08-25T17:32:58Z</time>
      </trkpt>
      <trkpt lat="45.88543" lon="6.40435">
        <ele>1517.6</ele>
        <time>2021-08-25T17:33:01Z</time>
      </trkpt>
      <trkpt lat="45.88524" lon="6.40435">
        <ele>1517.4</ele>
        <time>2021-08-25T17:33:08Z</time>
      </trkpt>
      <trkpt lat="45.88509" lon="6.40447">
        <ele>1515.8</ele>
        <time>2021-08-25T17:33:18Z</time>
      </trkpt>
      <trkpt lat="45.88493" lon="6.40458">
        <ele>1515.3</ele>
        <time>2021-08-25T17:33:34Z</time>
      </trkpt>
      <trkpt lat="45.88481" lon="6.40463">
        <ele>1516</ele>
        <time>2021-08-25T17:33:40Z</time>
      </trkpt>
      <trkpt lat="45.88474" lon="6.40465">
        <ele>1516.6</ele>
        <time>2021-08-25T17:33:49Z</time>
      </trkpt>
      <trkpt lat="45.88454" lon="6.40472">
        <ele>1517.7</ele>
        <time>2021-08-25T17:34:01Z</time>
      </trkpt>
      <trkpt lat="45.88456" lon="6.40477">
        <ele>1517</ele>
        <time>2021-08-25T17:34:09Z</time>
      </trkpt>
      <trkpt lat="45.8845" lon="6.40478">
        <ele>1517.4</ele>
        <time>2021-08-25T17:34:27Z</time>
      </trkpt>
      <trkpt lat="45.88429" lon="6.40486">
        <ele>1518.1</ele>
        <time>2021-08-25T17:34:46Z</time>
      </trkpt>
      <trkpt lat="45.88418" lon="6.40491">
        <ele>1518.4</ele>
        <time>2021-08-25T17:35:01Z</time>
      </trkpt>
      <trkpt lat="45.88403" lon="6.40497">
        <ele>1521.8</ele>
        <time>2021-08-25T17:35:13Z</time>
      </trkpt>
      <trkpt lat="45.88385" lon="6.40499">
        <ele>1526.6</ele>
        <time>2021-08-25T17:35:15Z</time>
      </trkpt>
      <trkpt lat="45.88376" lon="6.40504">
        <ele>1528.5</ele>
        <time>2021-08-25T17:35:28Z</time>
      </trkpt>
      <trkpt lat="45.88358" lon="6.40508">
        <ele>1532.9</ele>
        <time>2021-08-25T17:35:31Z</time>
      </trkpt>
      <trkpt lat="45.88348" lon="6.40511">
        <ele>1535.2</ele>
        <time>2021-08-25T17:35:46Z</time>
      </trkpt>
      <trkpt lat="45.88334" lon="6.40513">
        <ele>1538.8</ele>
        <time>2021-08-25T17:35:59Z</time>
      </trkpt>
      <trkpt lat="45.88332" lon="6.40511">
        <ele>1539.3</ele>
        <time>2021-08-25T17:36:07Z</time>
      </trkpt>
      <trkpt lat="45.88321" lon="6.40509">
        <ele>1540.2</ele>
        <time>2021-08-25T17:36:13Z</time>
      </trkpt>
      <trkpt lat="45.88307" lon="6.40509">
        <ele>1540.4</ele>
        <time>2021-08-25T17:36:24Z</time>
      </trkpt>
      <trkpt lat="45.88288" lon="6.40512">
        <ele>1540.1</ele>
        <time>2021-08-25T17:36:33Z</time>
      </trkpt>
      <trkpt lat="45.88276" lon="6.4051">
        <ele>1540.9</ele>
        <time>2021-08-25T17:36:35Z</time>
      </trkpt>
      <trkpt lat="45.88266" lon="6.40505">
        <ele>1542.4</ele>
        <time>2021-08-25T17:36:54Z</time>
      </trkpt>
      <trkpt lat="45.88246" lon="6.40509">
        <ele>1541.2</ele>
        <time>2021-08-25T17:37:01Z</time>
      </trkpt>
      <trkpt lat="45.88228" lon="6.40505">
        <ele>1540.3</ele>
        <time>2021-08-25T17:37:19Z</time>
      </trkpt>
      <trkpt lat="45.88215" lon="6.405">
        <ele>1539.8</ele>
        <time>2021-08-25T17:37:39Z</time>
      </trkpt>
      <trkpt lat="45.88212" lon="6.40501">
        <ele>1539.4</ele>
        <time>2021-08-25T17:37:47Z</time>
      </trkpt>
      <trkpt lat="45.8821" lon="6.40501">
        <ele>1539</ele>
        <time>2021-08-25T17:37:57Z</time>
      </trkpt>
      <trkpt lat="45.88197" lon="6.40501">
        <ele>1537.5</ele>
        <time>2021-08-25T17:38:14Z</time>
      </trkpt>
      <trkpt lat="45.88186" lon="6.405">
        <ele>1536.3</ele>
        <time>2021-08-25T17:38:26Z</time>
      </trkpt>
      <trkpt lat="45.88167" lon="6.40489">
        <ele>1536.3</ele>
        <time>2021-08-25T17:38:35Z</time>
      </trkpt>
      <trkpt lat="45.88151" lon="6.40485">
        <ele>1535.2</ele>
        <time>2021-08-25T17:38:48Z</time>
      </trkpt>
      <trkpt lat="45.88135" lon="6.40481">
        <ele>1534.3</ele>
        <time>2021-08-25T17:39:05Z</time>
      </trkpt>
      <trkpt lat="45.88128" lon="6.40472">
        <ele>1535.2</ele>
        <time>2021-08-25T17:39:22Z</time>
      </trkpt>
      <trkpt lat="45.88113" lon="6.40464">
        <ele>1535</ele>
        <time>2021-08-25T17:39:40Z</time>
      </trkpt>
      <trkpt lat="45.88101" lon="6.40459">
        <ele>1534.6</ele>
        <time>2021-08-25T17:39:56Z</time>
      </trkpt>
      <trkpt lat="45.88083" lon="6.40457">
        <ele>1532.9</ele>
        <time>2021-08-25T17:40:03Z</time>
      </trkpt>
      <trkpt lat="45.88073" lon="6.40456">
        <ele>1530.1</ele>
        <time>2021-08-25T17:40:16Z</time>
      </trkpt>
      <trkpt lat="45.88056" lon="6.40455">
        <ele>1525.8</ele>
        <time>2021-08-25T17:40:19Z</time>
      </trkpt>
      <trkpt lat="45.88053" lon="6.40455">
        <ele>1524.9</ele>
        <time>2021-08-25T17:40:37Z</time>
      </trkpt>
      <trkpt lat="45.88037" lon="6.40448">
        <ele>1521.9</ele>
        <time>2021-08-25T17:40:43Z</time>
      </trkpt>
      <trkpt lat="45.88027" lon="6.40441">
        <ele>1521.1</ele>
        <time>2021-08-25T17:40:49Z</time>
      </trkpt>
      <trkpt lat="45.88017" lon="6.40428">
        <ele>1521.4</ele>
        <time>2021-08-25T17:41:03Z</time>
      </trkpt>
      <trkpt lat="45.88015" lon="6.40425">
        <ele>1521.7</ele>
        <time>2021-08-25T17:41:06Z</time>
      </trkpt>
      <trkpt lat="45.88009" lon="6.40416">
        <ele>1522.3</ele>
        <time>2021-08-25T17:41:10Z</time>
      </trkpt>
      <trkpt lat="45.88006" lon="6.4041">
        <ele>1522.4</ele>
        <time>2021-08-25T17:41:15Z</time>
      </trkpt>
      <trkpt lat="45.87997" lon="6.40392">
        <ele>1522.3</ele>
        <time>2021-08-25T17:41:21Z</time>
      </trkpt>
      <trkpt lat="45.87989" lon="6.4038">
        <ele>1521.4</ele>
        <time>2021-08-25T17:41:23Z</time>
      </trkpt>
      <trkpt lat="45.87979" lon="6.40367">
        <ele>1520.1</ele>
        <time>2021-08-25T17:41:41Z</time>
      </trkpt>
      <trkpt lat="45.87974" lon="6.40358">
        <ele>1519.7</ele>
        <time>2021-08-25T17:41:46Z</time>
      </trkpt>
      <trkpt lat="45.87963" lon="6.40346">
        <ele>1517.9</ele>
        <time>2021-08-25T17:41:53Z</time>
      </trkpt>
      <trkpt lat="45.87955" lon="6.40338">
        <ele>1516.4</ele>
        <time>2021-08-25T17:41:55Z</time>
      </trkpt>
      <trkpt lat="45.87937" lon="6.4033">
        <ele>1511.5</ele>
        <time>2021-08-25T17:42:11Z</time>
      </trkpt>
      <trkpt lat="45.87933" lon="6.40329">
        <ele>1510.5</ele>
        <time>2021-08-25T17:42:21Z</time>
      </trkpt>
      <trkpt lat="45.87922" lon="6.40325">
        <ele>1507.4</ele>
        <time>2021-08-25T17:42:28Z</time>
      </trkpt>
      <trkpt lat="45.87921" lon="6.40325">
        <ele>1507.3</ele>
        <time>2021-08-25T17:42:41Z</time>
      </trkpt>
      <trkpt lat="45.87918" lon="6.40315">
        <ele>1507.2</ele>
        <time>2021-08-25T17:43:00Z</time>
      </trkpt>
      <trkpt lat="45.87906" lon="6.40301">
        <ele>1506.5</ele>
        <time>2021-08-25T17:43:03Z</time>
      </trkpt>
      <trkpt lat="45.87905" lon="6.403">
        <ele>1506.6</ele>
        <time>2021-08-25T17:43:15Z</time>
      </trkpt>
      <trkpt lat="45.87898" lon="6.40283">
        <ele>1507.2</ele>
        <time>2021-08-25T17:43:29Z</time>
      </trkpt>
      <trkpt lat="45.87883" lon="6.4026">
        <ele>1507.1</ele>
        <time>2021-08-25T17:43:37Z</time>
      </trkpt>
      <trkpt lat="45.87872" lon="6.40246">
        <ele>1506.8</ele>
        <time>2021-08-25T17:43:51Z</time>
      </trkpt>
      <trkpt lat="45.87861" lon="6.4023">
        <ele>1506.5</ele>
        <time>2021-08-25T17:44:02Z</time>
      </trkpt>
      <trkpt lat="45.87858" lon="6.40222">
        <ele>1506.8</ele>
        <time>2021-08-25T17:44:16Z</time>
      </trkpt>
      <trkpt lat="45.87853" lon="6.40216">
        <ele>1506.5</ele>
        <time>2021-08-25T17:44:31Z</time>
      </trkpt>
      <trkpt lat="45.87851" lon="6.40214">
        <ele>1506.4</ele>
        <time>2021-08-25T17:44:33Z</time>
      </trkpt>
      <trkpt lat="45.87842" lon="6.40197">
        <ele>1506.5</ele>
        <time>2021-08-25T17:44:36Z</time>
      </trkpt>
      <trkpt lat="45.87847" lon="6.40193">
        <ele>1507.7</ele>
        <time>2021-08-25T17:44:55Z</time>
      </trkpt>
      <trkpt lat="45.87856" lon="6.40198">
        <ele>1508.6</ele>
        <time>2021-08-25T17:44:59Z</time>
      </trkpt>
      <trkpt lat="45.87858" lon="6.402">
        <ele>1508.7</ele>
        <time>2021-08-25T17:45:11Z</time>
      </trkpt>
      <trkpt lat="45.87861" lon="6.40199">
        <ele>1509.3</ele>
        <time>2021-08-25T17:45:20Z</time>
      </trkpt>
      <trkpt lat="45.87867" lon="6.40195">
        <ele>1510.6</ele>
        <time>2021-08-25T17:45:24Z</time>
      </trkpt>
      <trkpt lat="45.87866" lon="6.4018">
        <ele>1511.9</ele>
        <time>2021-08-25T17:45:44Z</time>
      </trkpt>
      <trkpt lat="45.87863" lon="6.40175">
        <ele>1511.9</ele>
        <time>2021-08-25T17:46:02Z</time>
      </trkpt>
      <trkpt lat="45.8786" lon="6.40163">
        <ele>1512.7</ele>
        <time>2021-08-25T17:46:10Z</time>
      </trkpt>
      <trkpt lat="45.87848" lon="6.40145">
        <ele>1513.2</ele>
        <time>2021-08-25T17:46:21Z</time>
      </trkpt>
      <trkpt lat="45.87847" lon="6.40144">
        <ele>1513.3</ele>
        <time>2021-08-25T17:46:35Z</time>
      </trkpt>
      <trkpt lat="45.87841" lon="6.40138">
        <ele>1513.2</ele>
        <time>2021-08-25T17:46:54Z</time>
      </trkpt>
      <trkpt lat="45.87826" lon="6.40121">
        <ele>1512.9</ele>
        <time>2021-08-25T17:47:13Z</time>
      </trkpt>
      <trkpt lat="45.87814" lon="6.40104">
        <ele>1512.2</ele>
        <time>2021-08-25T17:47:31Z</time>
      </trkpt>
      <trkpt lat="45.87803" lon="6.40089">
        <ele>1511.3</ele>
        <time>2021-08-25T17:47:39Z</time>
      </trkpt>
      <trkpt lat="45.87803" lon="6.40077">
        <ele>1512.9</ele>
        <time>2021-08-25T17:47:47Z</time>
      </trkpt>
      <trkpt lat="45.87805" lon="6.40069">
        <ele>1514.4</ele>
        <time>2021-08-25T17:47:56Z</time>
      </trkpt>
      <trkpt lat="45.87803" lon="6.40069">
        <ele>1514</ele>
        <time>2021-08-25T17:48:08Z</time>
      </trkpt>
      <trkpt lat="45.87801" lon="6.40072">
        <ele>1513.1</ele>
        <time>2021-08-25T17:48:19Z</time>
      </trkpt>
      <trkpt lat="45.87797" lon="6.40074">
        <ele>1511.7</ele>
        <time>2021-08-25T17:48:22Z</time>
      </trkpt>
      <trkpt lat="45.87798" lon="6.40076">
        <ele>1511.6</ele>
        <time>2021-08-25T17:48:26Z</time>
      </trkpt>
      <trkpt lat="45.87797" lon="6.40077">
        <ele>1511.2</ele>
        <time>2021-08-25T17:48:45Z</time>
      </trkpt>
      <trkpt lat="45.87796" lon="6.40074">
        <ele>1511.3</ele>
        <time>2021-08-25T17:48:51Z</time>
      </trkpt>
      <trkpt lat="45.87795" lon="6.40075">
        <ele>1511</ele>
        <time>2021-08-25T17:48:56Z</time>
      </trkpt>
      <trkpt lat="45.87799" lon="6.4008">
        <ele>1511.4</ele>
        <time>2021-08-25T17:49:11Z</time>
      </trkpt>
      <trkpt lat="45.87804" lon="6.4008">
        <ele>1512.7</ele>
        <time>2021-08-25T17:49:20Z</time>
      </trkpt>
      <trkpt lat="45.87808" lon="6.40081">
        <ele>1513.7</ele>
        <time>2021-08-25T17:49:37Z</time>
      </trkpt>
      <trkpt lat="45.87803" lon="6.40081">
        <ele>1512.3</ele>
        <time>2021-08-25T17:49:48Z</time>
      </trkpt>
      <trkpt lat="45.87801" lon="6.4008">
        <ele>1512</ele>
        <time>2021-08-25T17:49:51Z</time>
      </trkpt>
      <trkpt lat="45.87801" lon="6.4008">
        <ele>1511.9</ele>
        <time>2021-08-25T17:50:01Z</time>
      </trkpt>
      <trkpt lat="45.87803" lon="6.40088">
        <ele>1511.4</ele>
        <time>2021-08-25T17:50:07Z</time>
      </trkpt>
      <trkpt lat="45.8781" lon="6.40102">
        <ele>1511.6</ele>
        <time>2021-08-25T17:50:19Z</time>
      </trkpt>
      <trkpt lat="45.87812" lon="6.40106">
        <ele>1511.6</ele>
        <time>2021-08-25T17:50:31Z</time>
      </trkpt>
      <trkpt lat="45.87822" lon="6.40116">
        <ele>1512.6</ele>
        <time>2021-08-25T17:50:37Z</time>
      </trkpt>
      <trkpt lat="45.87825" lon="6.40121">
        <ele>1512.7</ele>
        <time>2021-08-25T17:50:48Z</time>
      </trkpt>
      <trkpt lat="45.87827" lon="6.40123">
        <ele>1512.9</ele>
        <time>2021-08-25T17:51:08Z</time>
      </trkpt>
      <trkpt lat="45.87838" lon="6.40136">
        <ele>1513.1</ele>
        <time>2021-08-25T17:51:16Z</time>
      </trkpt>
      <trkpt lat="45.87839" lon="6.40138">
        <ele>1513</ele>
        <time>2021-08-25T17:51:27Z</time>
      </trkpt>
      <trkpt lat="45.87852" lon="6.40153">
        <ele>1512.9</ele>
        <time>2021-08-25T17:51:35Z</time>
      </trkpt>
      <trkpt lat="45.87858" lon="6.4016">
        <ele>1512.7</ele>
        <time>2021-08-25T17:51:52Z</time>
      </trkpt>
      <trkpt lat="45.87862" lon="6.40167">
        <ele>1512.4</ele>
        <time>2021-08-25T17:52:08Z</time>
      </trkpt>
      <trkpt lat="45.87864" lon="6.40173">
        <ele>1512.2</ele>
        <time>2021-08-25T17:52:16Z</time>
      </trkpt>
      <trkpt lat="45.87865" lon="6.40177">
        <ele>1512</ele>
        <time>2021-08-25T17:52:26Z</time>
      </trkpt>
      <trkpt lat="45.87866" lon="6.40185">
        <ele>1511.5</ele>
        <time>2021-08-25T17:52:40Z</time>
      </trkpt>
      <trkpt lat="45.87869" lon="6.40193">
        <ele>1511.2</ele>
        <time>2021-08-25T17:52:57Z</time>
      </trkpt>
      <trkpt lat="45.87864" lon="6.402">
        <ele>1509.7</ele>
        <time>2021-08-25T17:53:01Z</time>
      </trkpt>
      <trkpt lat="45.87851" lon="6.40192">
        <ele>1508.4</ele>
        <time>2021-08-25T17:53:07Z</time>
      </trkpt>
      <trkpt lat="45.87846" lon="6.40191">
        <ele>1507.7</ele>
        <time>2021-08-25T17:53:18Z</time>
      </trkpt>
      <trkpt lat="45.8784" lon="6.40195">
        <ele>1506.3</ele>
        <time>2021-08-25T17:53:29Z</time>
      </trkpt>
      <trkpt lat="45.87839" lon="6.40205">
        <ele>1505.2</ele>
        <time>2021-08-25T17:53:32Z</time>
      </trkpt>
      <trkpt lat="45.87848" lon="6.40223">
        <ele>1505</ele>
        <time>2021-08-25T17:53:40Z</time>
      </trkpt>
      <trkpt lat="45.87851" lon="6.40227">
        <ele>1505.1</ele>
        <time>2021-08-25T17:53:59Z</time>
      </trkpt>
      <trkpt lat="45.87864" lon="6.40244">
        <ele>1505.6</ele>
        <time>2021-08-25T17:54:12Z</time>
      </trkpt>
      <trkpt lat="45.87873" lon="6.40256">
        <ele>1506</ele>
        <time>2021-08-25T17:54:25Z</time>
      </trkpt>
      <trkpt lat="45.87879" lon="6.40265">
        <ele>1506</ele>
        <time>2021-08-25T17:54:40Z</time>
      </trkpt>
      <trkpt lat="45.87895" lon="6.40281">
        <ele>1506.8</ele>
        <time>2021-08-25T17:54:49Z</time>
      </trkpt>
      <trkpt lat="45.87903" lon="6.40293">
        <ele>1506.9</ele>
        <time>2021-08-25T17:54:52Z</time>
      </trkpt>
      <trkpt lat="45.87905" lon="6.403">
        <ele>1506.4</ele>
        <time>2021-08-25T17:55:09Z</time>
      </trkpt>
      <trkpt lat="45.87906" lon="6.40303">
        <ele>1506.4</ele>
        <time>2021-08-25T17:55:15Z</time>
      </trkpt>
      <trkpt lat="45.87915" lon="6.40311">
        <ele>1507</ele>
        <time>2021-08-25T17:55:30Z</time>
      </trkpt>
      <trkpt lat="45.87916" lon="6.40314">
        <ele>1506.9</ele>
        <time>2021-08-25T17:55:48Z</time>
      </trkpt>
      <trkpt lat="45.87917" lon="6.40326">
        <ele>1505.8</ele>
        <time>2021-08-25T17:55:56Z</time>
      </trkpt>
      <trkpt lat="45.87916" lon="6.40332">
        <ele>1505.1</ele>
        <time>2021-08-25T17:56:09Z</time>
      </trkpt>
      <trkpt lat="45.87905" lon="6.40335">
        <ele>1502.5</ele>
        <time>2021-08-25T17:56:12Z</time>
      </trkpt>
      <trkpt lat="45.87896" lon="6.40333">
        <ele>1501.1</ele>
        <time>2021-08-25T17:56:14Z</time>
      </trkpt>
      <trkpt lat="45.87887" lon="6.40325">
        <ele>1500.2</ele>
        <time>2021-08-25T17:56:27Z</time>
      </trkpt>
      <trkpt lat="45.87881" lon="6.40321">
        <ele>1499.5</ele>
        <time>2021-08-25T17:56:31Z</time>
      </trkpt>
      <trkpt lat="45.87878" lon="6.40318">
        <ele>1499.4</ele>
        <time>2021-08-25T17:56:43Z</time>
      </trkpt>
      <trkpt lat="45.87864" lon="6.40308">
        <ele>1498</ele>
        <time>2021-08-25T17:56:53Z</time>
      </trkpt>
      <trkpt lat="45.8786" lon="6.40306">
        <ele>1497.5</ele>
        <time>2021-08-25T17:57:12Z</time>
      </trkpt>
      <trkpt lat="45.87841" lon="6.40302">
        <ele>1494.6</ele>
        <time>2021-08-25T17:57:30Z</time>
      </trkpt>
      <trkpt lat="45.87835" lon="6.403">
        <ele>1493.7</ele>
        <time>2021-08-25T17:57:46Z</time>
      </trkpt>
      <trkpt lat="45.87823" lon="6.40298">
        <ele>1491.6</ele>
        <time>2021-08-25T17:57:54Z</time>
      </trkpt>
      <trkpt lat="45.87821" lon="6.40297">
        <ele>1491.2</ele>
        <time>2021-08-25T17:57:58Z</time>
      </trkpt>
      <trkpt lat="45.87807" lon="6.403">
        <ele>1488</ele>
        <time>2021-08-25T17:58:10Z</time>
      </trkpt>
      <trkpt lat="45.8779" lon="6.40296">
        <ele>1485.2</ele>
        <time>2021-08-25T17:58:20Z</time>
      </trkpt>
      <trkpt lat="45.87774" lon="6.40292">
        <ele>1482.4</ele>
        <time>2021-08-25T17:58:37Z</time>
      </trkpt>
      <trkpt lat="45.87774" lon="6.40294">
        <ele>1482.1</ele>
        <time>2021-08-25T17:58:52Z</time>
      </trkpt>
      <trkpt lat="45.87768" lon="6.4029">
        <ele>1481.4</ele>
        <time>2021-08-25T17:58:54Z</time>
      </trkpt>
      <trkpt lat="45.87756" lon="6.40282">
        <ele>1479.8</ele>
        <time>2021-08-25T17:59:03Z</time>
      </trkpt>
      <trkpt lat="45.87744" lon="6.40271">
        <ele>1478.3</ele>
        <time>2021-08-25T17:59:12Z</time>
      </trkpt>
      <trkpt lat="45.8774" lon="6.40266">
        <ele>1477.9</ele>
        <time>2021-08-25T17:59:29Z</time>
      </trkpt>
      <trkpt lat="45.87734" lon="6.40254">
        <ele>1477.4</ele>
        <time>2021-08-25T17:59:36Z</time>
      </trkpt>
      <trkpt lat="45.87733" lon="6.40254">
        <ele>1477.2</ele>
        <time>2021-08-25T17:59:52Z</time>
      </trkpt>
      <trkpt lat="45.87727" lon="6.40265">
        <ele>1474.8</ele>
        <time>2021-08-25T17:59:55Z</time>
      </trkpt>
      <trkpt lat="45.87733" lon="6.40286">
        <ele>1474.5</ele>
        <time>2021-08-25T18:00:11Z</time>
      </trkpt>
      <trkpt lat="45.87741" lon="6.40305">
        <ele>1474.5</ele>
        <time>2021-08-25T18:00:20Z</time>
      </trkpt>
      <trkpt lat="45.87741" lon="6.40311">
        <ele>1473.9</ele>
        <time>2021-08-25T18:00:24Z</time>
      </trkpt>
      <trkpt lat="45.87741" lon="6.4032">
        <ele>1473</ele>
        <time>2021-08-25T18:00:34Z</time>
      </trkpt>
      <trkpt lat="45.8774" lon="6.40328">
        <ele>1472.1</ele>
        <time>2021-08-25T18:00:39Z</time>
      </trkpt>
      <trkpt lat="45.8774" lon="6.40339">
        <ele>1471.2</ele>
        <time>2021-08-25T18:00:48Z</time>
      </trkpt>
      <trkpt lat="45.87736" lon="6.4035">
        <ele>1470</ele>
        <time>2021-08-25T18:00:53Z</time>
      </trkpt>
    </trkseg>
  </trk>
</gpx>